<?xml version="1.0" encoding="UTF-8" standalone="no" ?>
<gpx xmlns="http://www.topografix.com/GPX/1/1" xmlns:xsi="http://www.w3.org/2001/XMLSchema-instance" xsi:schemaLocation="http://www.topografix.com/GPX/1/1 http://www.topografix.com/GPX/1/1/gpx.xsd" version="1.1" creator="VisuGPX - https://www.visugpx.com">
  <metadata>
    <name>RSPFY-Ronqueux</name>
    <desc><![CDATA[marche nordique au départ du parking de Ronqueux passant par Bonnelles et Bullion.]]></desc>
  </metadata>
  <trk>
    <name><![CDATA[2023-06-23 08:40]]></name>
    <desc><![CDATA[<p>Heure de départ: 08:40 23 juin 2023<br/>Heure d'arrivée: 11:45 23 juin 2023<br/>Distance: 12,5 km (03:05)<br/>Temps déplacement: 02:34<br/>Vitesse moyenne: 4,03 km/h<br/>Vitesse moyenne mouv.: 4,85 km/h<br/>Vitesse Max.: 8,11 km/h<br/>Altitude minimale: 107 m<br/>Altitude maximale: 181 m<br/>Vitesse de montée: 270,5 m/h<br/>Vitesse de descente: -249,4 m/h<br/>Gain d'altitude: 392 m<br/>Perte d'altitude: -394 m<br/>Temps de montée: 01:27<br/>Temps de descente: 01:34<br/></p><hr align="center" width="480" style="height: 2px; width: 517px"/>]]></desc>
    <trkseg>
      <trkpt lat="48.63813" lon="1.9892">
        <ele>173</ele>
        <time>2023-06-23T06:40:02Z</time>
      </trkpt>
      <trkpt lat="48.63806" lon="1.98911">
        <ele>173</ele>
        <time>2023-06-23T06:41:52Z</time>
      </trkpt>
      <trkpt lat="48.63797" lon="1.98905">
        <ele>173</ele>
        <time>2023-06-23T06:42:06Z</time>
      </trkpt>
      <trkpt lat="48.63789" lon="1.98914">
        <ele>173</ele>
        <time>2023-06-23T06:42:15Z</time>
      </trkpt>
      <trkpt lat="48.63783" lon="1.98925">
        <ele>172.8</ele>
        <time>2023-06-23T06:42:22Z</time>
      </trkpt>
      <trkpt lat="48.63774" lon="1.98933">
        <ele>172.2</ele>
        <time>2023-06-23T06:42:29Z</time>
      </trkpt>
      <trkpt lat="48.63768" lon="1.98944">
        <ele>171.7</ele>
        <time>2023-06-23T06:42:38Z</time>
      </trkpt>
      <trkpt lat="48.6376" lon="1.98952">
        <ele>171.2</ele>
        <time>2023-06-23T06:42:44Z</time>
      </trkpt>
      <trkpt lat="48.63753" lon="1.98961">
        <ele>170.6</ele>
        <time>2023-06-23T06:42:50Z</time>
      </trkpt>
      <trkpt lat="48.63747" lon="1.98972">
        <ele>169.8</ele>
        <time>2023-06-23T06:42:56Z</time>
      </trkpt>
      <trkpt lat="48.63739" lon="1.98981">
        <ele>168.9</ele>
        <time>2023-06-23T06:43:02Z</time>
      </trkpt>
      <trkpt lat="48.63731" lon="1.9899">
        <ele>168</ele>
        <time>2023-06-23T06:43:10Z</time>
      </trkpt>
      <trkpt lat="48.63724" lon="1.99">
        <ele>167.1</ele>
        <time>2023-06-23T06:43:18Z</time>
      </trkpt>
      <trkpt lat="48.63716" lon="1.99009">
        <ele>166.6</ele>
        <time>2023-06-23T06:43:27Z</time>
      </trkpt>
      <trkpt lat="48.6371" lon="1.9902">
        <ele>166.4</ele>
        <time>2023-06-23T06:43:34Z</time>
      </trkpt>
      <trkpt lat="48.63702" lon="1.99029">
        <ele>165.9</ele>
        <time>2023-06-23T06:43:44Z</time>
      </trkpt>
      <trkpt lat="48.63696" lon="1.99039">
        <ele>165.5</ele>
        <time>2023-06-23T06:43:51Z</time>
      </trkpt>
      <trkpt lat="48.63688" lon="1.99049">
        <ele>165.2</ele>
        <time>2023-06-23T06:43:59Z</time>
      </trkpt>
      <trkpt lat="48.63682" lon="1.9906">
        <ele>165.4</ele>
        <time>2023-06-23T06:44:06Z</time>
      </trkpt>
      <trkpt lat="48.63675" lon="1.99071">
        <ele>165.6</ele>
        <time>2023-06-23T06:44:13Z</time>
      </trkpt>
      <trkpt lat="48.63668" lon="1.99081">
        <ele>165.9</ele>
        <time>2023-06-23T06:44:21Z</time>
      </trkpt>
      <trkpt lat="48.63662" lon="1.99091">
        <ele>166</ele>
        <time>2023-06-23T06:44:29Z</time>
      </trkpt>
      <trkpt lat="48.63656" lon="1.99102">
        <ele>166.1</ele>
        <time>2023-06-23T06:44:35Z</time>
      </trkpt>
      <trkpt lat="48.63649" lon="1.99113">
        <ele>166.4</ele>
        <time>2023-06-23T06:44:43Z</time>
      </trkpt>
      <trkpt lat="48.63642" lon="1.99123">
        <ele>166.5</ele>
        <time>2023-06-23T06:44:50Z</time>
      </trkpt>
      <trkpt lat="48.63634" lon="1.99134">
        <ele>166.6</ele>
        <time>2023-06-23T06:44:56Z</time>
      </trkpt>
      <trkpt lat="48.63627" lon="1.99143">
        <ele>166.6</ele>
        <time>2023-06-23T06:45:01Z</time>
      </trkpt>
      <trkpt lat="48.6362" lon="1.99151">
        <ele>166.6</ele>
        <time>2023-06-23T06:45:08Z</time>
      </trkpt>
      <trkpt lat="48.63613" lon="1.99162">
        <ele>166.9</ele>
        <time>2023-06-23T06:45:16Z</time>
      </trkpt>
      <trkpt lat="48.63611" lon="1.99175">
        <ele>167.3</ele>
        <time>2023-06-23T06:45:26Z</time>
      </trkpt>
      <trkpt lat="48.63603" lon="1.99185">
        <ele>167.7</ele>
        <time>2023-06-23T06:45:34Z</time>
      </trkpt>
      <trkpt lat="48.63596" lon="1.99195">
        <ele>168</ele>
        <time>2023-06-23T06:45:42Z</time>
      </trkpt>
      <trkpt lat="48.63589" lon="1.99204">
        <ele>168</ele>
        <time>2023-06-23T06:45:49Z</time>
      </trkpt>
      <trkpt lat="48.63581" lon="1.99213">
        <ele>167.9</ele>
        <time>2023-06-23T06:45:59Z</time>
      </trkpt>
      <trkpt lat="48.63574" lon="1.99221">
        <ele>167.7</ele>
        <time>2023-06-23T06:46:07Z</time>
      </trkpt>
      <trkpt lat="48.63567" lon="1.9923">
        <ele>167.4</ele>
        <time>2023-06-23T06:46:13Z</time>
      </trkpt>
      <trkpt lat="48.63561" lon="1.99241">
        <ele>167.2</ele>
        <time>2023-06-23T06:46:20Z</time>
      </trkpt>
      <trkpt lat="48.63554" lon="1.9925">
        <ele>167</ele>
        <time>2023-06-23T06:46:26Z</time>
      </trkpt>
      <trkpt lat="48.63549" lon="1.99263">
        <ele>167</ele>
        <time>2023-06-23T06:46:32Z</time>
      </trkpt>
      <trkpt lat="48.63541" lon="1.99268">
        <ele>167</ele>
        <time>2023-06-23T06:46:39Z</time>
      </trkpt>
      <trkpt lat="48.63531" lon="1.99269">
        <ele>167</ele>
        <time>2023-06-23T06:46:47Z</time>
      </trkpt>
      <trkpt lat="48.63522" lon="1.99271">
        <ele>166.3</ele>
        <time>2023-06-23T06:46:54Z</time>
      </trkpt>
      <trkpt lat="48.63513" lon="1.99277">
        <ele>165.4</ele>
        <time>2023-06-23T06:47:01Z</time>
      </trkpt>
      <trkpt lat="48.6351" lon="1.9929">
        <ele>164.9</ele>
        <time>2023-06-23T06:47:08Z</time>
      </trkpt>
      <trkpt lat="48.6351" lon="1.99304">
        <ele>164.7</ele>
        <time>2023-06-23T06:47:16Z</time>
      </trkpt>
      <trkpt lat="48.63509" lon="1.99319">
        <ele>165</ele>
        <time>2023-06-23T06:47:25Z</time>
      </trkpt>
      <trkpt lat="48.63508" lon="1.99334">
        <ele>165.3</ele>
        <time>2023-06-23T06:47:32Z</time>
      </trkpt>
      <trkpt lat="48.63506" lon="1.99348">
        <ele>164.8</ele>
        <time>2023-06-23T06:47:39Z</time>
      </trkpt>
      <trkpt lat="48.63506" lon="1.99363">
        <ele>164.4</ele>
        <time>2023-06-23T06:47:50Z</time>
      </trkpt>
      <trkpt lat="48.63505" lon="1.99377">
        <ele>164.3</ele>
        <time>2023-06-23T06:47:58Z</time>
      </trkpt>
      <trkpt lat="48.63503" lon="1.99392">
        <ele>164.2</ele>
        <time>2023-06-23T06:48:06Z</time>
      </trkpt>
      <trkpt lat="48.635" lon="1.99406">
        <ele>164</ele>
        <time>2023-06-23T06:48:14Z</time>
      </trkpt>
      <trkpt lat="48.63499" lon="1.99421">
        <ele>163.7</ele>
        <time>2023-06-23T06:48:21Z</time>
      </trkpt>
      <trkpt lat="48.63497" lon="1.99434">
        <ele>163.5</ele>
        <time>2023-06-23T06:48:28Z</time>
      </trkpt>
      <trkpt lat="48.63498" lon="1.99449">
        <ele>163.4</ele>
        <time>2023-06-23T06:48:34Z</time>
      </trkpt>
      <trkpt lat="48.63498" lon="1.99465">
        <ele>162.7</ele>
        <time>2023-06-23T06:48:41Z</time>
      </trkpt>
      <trkpt lat="48.63499" lon="1.99479">
        <ele>162.5</ele>
        <time>2023-06-23T06:48:47Z</time>
      </trkpt>
      <trkpt lat="48.63498" lon="1.99493">
        <ele>161.7</ele>
        <time>2023-06-23T06:48:54Z</time>
      </trkpt>
      <trkpt lat="48.63496" lon="1.99507">
        <ele>160.8</ele>
        <time>2023-06-23T06:49:00Z</time>
      </trkpt>
      <trkpt lat="48.63496" lon="1.99522">
        <ele>160.4</ele>
        <time>2023-06-23T06:49:06Z</time>
      </trkpt>
      <trkpt lat="48.63495" lon="1.99536">
        <ele>160.2</ele>
        <time>2023-06-23T06:49:12Z</time>
      </trkpt>
      <trkpt lat="48.63494" lon="1.99551">
        <ele>160</ele>
        <time>2023-06-23T06:49:18Z</time>
      </trkpt>
      <trkpt lat="48.63495" lon="1.99566">
        <ele>159.8</ele>
        <time>2023-06-23T06:49:25Z</time>
      </trkpt>
      <trkpt lat="48.63495" lon="1.9958">
        <ele>159.6</ele>
        <time>2023-06-23T06:49:31Z</time>
      </trkpt>
      <trkpt lat="48.63496" lon="1.99595">
        <ele>159.6</ele>
        <time>2023-06-23T06:49:38Z</time>
      </trkpt>
      <trkpt lat="48.63496" lon="1.9961">
        <ele>159.6</ele>
        <time>2023-06-23T06:49:47Z</time>
      </trkpt>
      <trkpt lat="48.63499" lon="1.99623">
        <ele>159.5</ele>
        <time>2023-06-23T06:49:58Z</time>
      </trkpt>
      <trkpt lat="48.63496" lon="1.99609">
        <ele>159.6</ele>
        <time>2023-06-23T06:50:15Z</time>
      </trkpt>
      <trkpt lat="48.63496" lon="1.99595">
        <ele>159.5</ele>
        <time>2023-06-23T06:50:22Z</time>
      </trkpt>
      <trkpt lat="48.63494" lon="1.9958">
        <ele>159.5</ele>
        <time>2023-06-23T06:50:31Z</time>
      </trkpt>
      <trkpt lat="48.63492" lon="1.99566">
        <ele>159.4</ele>
        <time>2023-06-23T06:50:38Z</time>
      </trkpt>
      <trkpt lat="48.63482" lon="1.99569">
        <ele>158</ele>
        <time>2023-06-23T06:50:50Z</time>
      </trkpt>
      <trkpt lat="48.63474" lon="1.99577">
        <ele>157</ele>
        <time>2023-06-23T06:50:59Z</time>
      </trkpt>
      <trkpt lat="48.63465" lon="1.99583">
        <ele>156.1</ele>
        <time>2023-06-23T06:51:11Z</time>
      </trkpt>
      <trkpt lat="48.63458" lon="1.99593">
        <ele>155.6</ele>
        <time>2023-06-23T06:51:18Z</time>
      </trkpt>
      <trkpt lat="48.63449" lon="1.99595">
        <ele>154.8</ele>
        <time>2023-06-23T06:51:24Z</time>
      </trkpt>
      <trkpt lat="48.6344" lon="1.99597">
        <ele>154.2</ele>
        <time>2023-06-23T06:51:31Z</time>
      </trkpt>
      <trkpt lat="48.6343" lon="1.99598">
        <ele>153.5</ele>
        <time>2023-06-23T06:51:38Z</time>
      </trkpt>
      <trkpt lat="48.63421" lon="1.99595">
        <ele>152.7</ele>
        <time>2023-06-23T06:51:46Z</time>
      </trkpt>
      <trkpt lat="48.63411" lon="1.99594">
        <ele>151.8</ele>
        <time>2023-06-23T06:51:53Z</time>
      </trkpt>
      <trkpt lat="48.63402" lon="1.99591">
        <ele>150.5</ele>
        <time>2023-06-23T06:52:00Z</time>
      </trkpt>
      <trkpt lat="48.63394" lon="1.99599">
        <ele>150.2</ele>
        <time>2023-06-23T06:52:09Z</time>
      </trkpt>
      <trkpt lat="48.63384" lon="1.996">
        <ele>149.2</ele>
        <time>2023-06-23T06:52:16Z</time>
      </trkpt>
      <trkpt lat="48.63375" lon="1.99603">
        <ele>148.3</ele>
        <time>2023-06-23T06:52:23Z</time>
      </trkpt>
      <trkpt lat="48.63366" lon="1.99603">
        <ele>147</ele>
        <time>2023-06-23T06:52:31Z</time>
      </trkpt>
      <trkpt lat="48.63356" lon="1.99603">
        <ele>145.8</ele>
        <time>2023-06-23T06:52:40Z</time>
      </trkpt>
      <trkpt lat="48.63351" lon="1.99614">
        <ele>146.1</ele>
        <time>2023-06-23T06:52:50Z</time>
      </trkpt>
      <trkpt lat="48.63348" lon="1.99629">
        <ele>146.9</ele>
        <time>2023-06-23T06:53:07Z</time>
      </trkpt>
      <trkpt lat="48.63345" lon="1.99643">
        <ele>147.5</ele>
        <time>2023-06-23T06:53:15Z</time>
      </trkpt>
      <trkpt lat="48.63343" lon="1.99657">
        <ele>148.1</ele>
        <time>2023-06-23T06:53:23Z</time>
      </trkpt>
      <trkpt lat="48.63344" lon="1.99671">
        <ele>148.9</ele>
        <time>2023-06-23T06:53:30Z</time>
      </trkpt>
      <trkpt lat="48.63343" lon="1.99684">
        <ele>149.3</ele>
        <time>2023-06-23T06:53:52Z</time>
      </trkpt>
      <trkpt lat="48.63342" lon="1.99698">
        <ele>149.6</ele>
        <time>2023-06-23T06:54:18Z</time>
      </trkpt>
      <trkpt lat="48.63337" lon="1.9971">
        <ele>149.2</ele>
        <time>2023-06-23T06:54:28Z</time>
      </trkpt>
      <trkpt lat="48.63334" lon="1.99723">
        <ele>149</ele>
        <time>2023-06-23T06:54:35Z</time>
      </trkpt>
      <trkpt lat="48.63333" lon="1.99738">
        <ele>149</ele>
        <time>2023-06-23T06:54:43Z</time>
      </trkpt>
      <trkpt lat="48.63334" lon="1.99752">
        <ele>148.8</ele>
        <time>2023-06-23T06:54:49Z</time>
      </trkpt>
      <trkpt lat="48.63335" lon="1.99766">
        <ele>147.9</ele>
        <time>2023-06-23T06:54:54Z</time>
      </trkpt>
      <trkpt lat="48.63335" lon="1.99781">
        <ele>146.8</ele>
        <time>2023-06-23T06:55:00Z</time>
      </trkpt>
      <trkpt lat="48.63335" lon="1.99796">
        <ele>145.7</ele>
        <time>2023-06-23T06:55:06Z</time>
      </trkpt>
      <trkpt lat="48.63333" lon="1.99811">
        <ele>144.6</ele>
        <time>2023-06-23T06:55:12Z</time>
      </trkpt>
      <trkpt lat="48.63331" lon="1.99826">
        <ele>143.5</ele>
        <time>2023-06-23T06:55:18Z</time>
      </trkpt>
      <trkpt lat="48.63331" lon="1.99841">
        <ele>142.5</ele>
        <time>2023-06-23T06:55:24Z</time>
      </trkpt>
      <trkpt lat="48.63331" lon="1.99855">
        <ele>141.4</ele>
        <time>2023-06-23T06:55:30Z</time>
      </trkpt>
      <trkpt lat="48.6333" lon="1.9987">
        <ele>140.7</ele>
        <time>2023-06-23T06:55:36Z</time>
      </trkpt>
      <trkpt lat="48.63329" lon="1.99885">
        <ele>140.2</ele>
        <time>2023-06-23T06:55:42Z</time>
      </trkpt>
      <trkpt lat="48.63329" lon="1.999">
        <ele>139.2</ele>
        <time>2023-06-23T06:55:48Z</time>
      </trkpt>
      <trkpt lat="48.63328" lon="1.99913">
        <ele>138.2</ele>
        <time>2023-06-23T06:55:54Z</time>
      </trkpt>
      <trkpt lat="48.63328" lon="1.99929">
        <ele>137.6</ele>
        <time>2023-06-23T06:56:01Z</time>
      </trkpt>
      <trkpt lat="48.63327" lon="1.99944">
        <ele>137</ele>
        <time>2023-06-23T06:56:08Z</time>
      </trkpt>
      <trkpt lat="48.63326" lon="1.99959">
        <ele>136.5</ele>
        <time>2023-06-23T06:56:15Z</time>
      </trkpt>
      <trkpt lat="48.63326" lon="1.99975">
        <ele>135.9</ele>
        <time>2023-06-23T06:56:22Z</time>
      </trkpt>
      <trkpt lat="48.63326" lon="1.9999">
        <ele>135.4</ele>
        <time>2023-06-23T06:56:29Z</time>
      </trkpt>
      <trkpt lat="48.63325" lon="2.00004">
        <ele>134.7</ele>
        <time>2023-06-23T06:56:36Z</time>
      </trkpt>
      <trkpt lat="48.63334" lon="2.00012">
        <ele>134.2</ele>
        <time>2023-06-23T06:56:44Z</time>
      </trkpt>
      <trkpt lat="48.63343" lon="2.00011">
        <ele>134.2</ele>
        <time>2023-06-23T06:56:50Z</time>
      </trkpt>
      <trkpt lat="48.63353" lon="2.00012">
        <ele>134.2</ele>
        <time>2023-06-23T06:56:57Z</time>
      </trkpt>
      <trkpt lat="48.63363" lon="2.00014">
        <ele>134</ele>
        <time>2023-06-23T06:57:04Z</time>
      </trkpt>
      <trkpt lat="48.63372" lon="2.00018">
        <ele>133.7</ele>
        <time>2023-06-23T06:57:11Z</time>
      </trkpt>
      <trkpt lat="48.63382" lon="2.00024">
        <ele>133.3</ele>
        <time>2023-06-23T06:57:18Z</time>
      </trkpt>
      <trkpt lat="48.63391" lon="2.00026">
        <ele>133.2</ele>
        <time>2023-06-23T06:57:24Z</time>
      </trkpt>
      <trkpt lat="48.634" lon="2.00027">
        <ele>133.5</ele>
        <time>2023-06-23T06:57:30Z</time>
      </trkpt>
      <trkpt lat="48.6341" lon="2.00028">
        <ele>133.7</ele>
        <time>2023-06-23T06:57:37Z</time>
      </trkpt>
      <trkpt lat="48.6342" lon="2.0003">
        <ele>133.9</ele>
        <time>2023-06-23T06:57:44Z</time>
      </trkpt>
      <trkpt lat="48.6343" lon="2.00032">
        <ele>134.2</ele>
        <time>2023-06-23T06:57:50Z</time>
      </trkpt>
      <trkpt lat="48.6344" lon="2.00034">
        <ele>134.4</ele>
        <time>2023-06-23T06:57:57Z</time>
      </trkpt>
      <trkpt lat="48.6345" lon="2.00036">
        <ele>134.4</ele>
        <time>2023-06-23T06:58:05Z</time>
      </trkpt>
      <trkpt lat="48.6346" lon="2.00039">
        <ele>134.4</ele>
        <time>2023-06-23T06:58:12Z</time>
      </trkpt>
      <trkpt lat="48.63469" lon="2.00042">
        <ele>134.4</ele>
        <time>2023-06-23T06:58:19Z</time>
      </trkpt>
      <trkpt lat="48.6348" lon="2.00045">
        <ele>134.6</ele>
        <time>2023-06-23T06:58:26Z</time>
      </trkpt>
      <trkpt lat="48.63489" lon="2.00048">
        <ele>134.9</ele>
        <time>2023-06-23T06:58:33Z</time>
      </trkpt>
      <trkpt lat="48.63499" lon="2.00051">
        <ele>135.1</ele>
        <time>2023-06-23T06:58:40Z</time>
      </trkpt>
      <trkpt lat="48.63507" lon="2.00055">
        <ele>135.3</ele>
        <time>2023-06-23T06:58:47Z</time>
      </trkpt>
      <trkpt lat="48.63516" lon="2.00062">
        <ele>135.4</ele>
        <time>2023-06-23T06:58:54Z</time>
      </trkpt>
      <trkpt lat="48.63525" lon="2.00067">
        <ele>135.5</ele>
        <time>2023-06-23T06:59:01Z</time>
      </trkpt>
      <trkpt lat="48.63533" lon="2.00074">
        <ele>135.5</ele>
        <time>2023-06-23T06:59:10Z</time>
      </trkpt>
      <trkpt lat="48.63541" lon="2.0008">
        <ele>135.6</ele>
        <time>2023-06-23T06:59:18Z</time>
      </trkpt>
      <trkpt lat="48.6355" lon="2.00086">
        <ele>135.9</ele>
        <time>2023-06-23T06:59:25Z</time>
      </trkpt>
      <trkpt lat="48.63559" lon="2.00089">
        <ele>136.5</ele>
        <time>2023-06-23T06:59:32Z</time>
      </trkpt>
      <trkpt lat="48.63567" lon="2.00096">
        <ele>137.3</ele>
        <time>2023-06-23T06:59:40Z</time>
      </trkpt>
      <trkpt lat="48.63575" lon="2.00104">
        <ele>138.2</ele>
        <time>2023-06-23T06:59:48Z</time>
      </trkpt>
      <trkpt lat="48.63584" lon="2.00113">
        <ele>139.1</ele>
        <time>2023-06-23T06:59:55Z</time>
      </trkpt>
      <trkpt lat="48.63582" lon="2.00127">
        <ele>139.5</ele>
        <time>2023-06-23T07:00:08Z</time>
      </trkpt>
      <trkpt lat="48.63573" lon="2.00134">
        <ele>139.1</ele>
        <time>2023-06-23T07:00:18Z</time>
      </trkpt>
      <trkpt lat="48.63564" lon="2.00136">
        <ele>138.5</ele>
        <time>2023-06-23T07:00:27Z</time>
      </trkpt>
      <trkpt lat="48.63554" lon="2.00138">
        <ele>137.8</ele>
        <time>2023-06-23T07:00:34Z</time>
      </trkpt>
      <trkpt lat="48.63545" lon="2.00143">
        <ele>137.5</ele>
        <time>2023-06-23T07:00:43Z</time>
      </trkpt>
      <trkpt lat="48.63538" lon="2.00153">
        <ele>137.6</ele>
        <time>2023-06-23T07:00:50Z</time>
      </trkpt>
      <trkpt lat="48.63529" lon="2.0016">
        <ele>137.6</ele>
        <time>2023-06-23T07:00:58Z</time>
      </trkpt>
      <trkpt lat="48.63519" lon="2.00163">
        <ele>137.2</ele>
        <time>2023-06-23T07:01:05Z</time>
      </trkpt>
      <trkpt lat="48.6351" lon="2.00163">
        <ele>136.5</ele>
        <time>2023-06-23T07:01:11Z</time>
      </trkpt>
      <trkpt lat="48.63501" lon="2.00161">
        <ele>135.9</ele>
        <time>2023-06-23T07:01:17Z</time>
      </trkpt>
      <trkpt lat="48.63491" lon="2.00161">
        <ele>136.1</ele>
        <time>2023-06-23T07:01:23Z</time>
      </trkpt>
      <trkpt lat="48.63481" lon="2.00161">
        <ele>136.4</ele>
        <time>2023-06-23T07:01:30Z</time>
      </trkpt>
      <trkpt lat="48.63471" lon="2.00161">
        <ele>136.6</ele>
        <time>2023-06-23T07:01:37Z</time>
      </trkpt>
      <trkpt lat="48.6346" lon="2.0016">
        <ele>136.8</ele>
        <time>2023-06-23T07:01:44Z</time>
      </trkpt>
      <trkpt lat="48.63451" lon="2.00158">
        <ele>136.9</ele>
        <time>2023-06-23T07:01:51Z</time>
      </trkpt>
      <trkpt lat="48.63442" lon="2.0016">
        <ele>137</ele>
        <time>2023-06-23T07:01:58Z</time>
      </trkpt>
      <trkpt lat="48.63432" lon="2.00163">
        <ele>136.3</ele>
        <time>2023-06-23T07:02:05Z</time>
      </trkpt>
      <trkpt lat="48.63423" lon="2.00166">
        <ele>135.6</ele>
        <time>2023-06-23T07:02:12Z</time>
      </trkpt>
      <trkpt lat="48.63413" lon="2.00172">
        <ele>135.2</ele>
        <time>2023-06-23T07:02:18Z</time>
      </trkpt>
      <trkpt lat="48.63403" lon="2.00176">
        <ele>134.7</ele>
        <time>2023-06-23T07:02:25Z</time>
      </trkpt>
      <trkpt lat="48.63394" lon="2.0018">
        <ele>134.4</ele>
        <time>2023-06-23T07:02:31Z</time>
      </trkpt>
      <trkpt lat="48.63385" lon="2.00182">
        <ele>133.8</ele>
        <time>2023-06-23T07:02:38Z</time>
      </trkpt>
      <trkpt lat="48.63376" lon="2.00183">
        <ele>133.2</ele>
        <time>2023-06-23T07:02:45Z</time>
      </trkpt>
      <trkpt lat="48.63366" lon="2.00187">
        <ele>132.8</ele>
        <time>2023-06-23T07:02:52Z</time>
      </trkpt>
      <trkpt lat="48.63357" lon="2.00192">
        <ele>132.5</ele>
        <time>2023-06-23T07:02:59Z</time>
      </trkpt>
      <trkpt lat="48.63348" lon="2.00197">
        <ele>132.3</ele>
        <time>2023-06-23T07:03:06Z</time>
      </trkpt>
      <trkpt lat="48.63338" lon="2.00199">
        <ele>131.8</ele>
        <time>2023-06-23T07:03:14Z</time>
      </trkpt>
      <trkpt lat="48.63328" lon="2.00199">
        <ele>131.3</ele>
        <time>2023-06-23T07:03:20Z</time>
      </trkpt>
      <trkpt lat="48.63317" lon="2.00198">
        <ele>130.8</ele>
        <time>2023-06-23T07:03:26Z</time>
      </trkpt>
      <trkpt lat="48.63308" lon="2.00199">
        <ele>130.4</ele>
        <time>2023-06-23T07:03:32Z</time>
      </trkpt>
      <trkpt lat="48.63298" lon="2.00199">
        <ele>130.1</ele>
        <time>2023-06-23T07:03:38Z</time>
      </trkpt>
      <trkpt lat="48.63289" lon="2.00198">
        <ele>129.7</ele>
        <time>2023-06-23T07:03:45Z</time>
      </trkpt>
      <trkpt lat="48.63279" lon="2.00197">
        <ele>129.3</ele>
        <time>2023-06-23T07:03:52Z</time>
      </trkpt>
      <trkpt lat="48.63269" lon="2.00197">
        <ele>128.8</ele>
        <time>2023-06-23T07:03:59Z</time>
      </trkpt>
      <trkpt lat="48.63259" lon="2.00196">
        <ele>128.4</ele>
        <time>2023-06-23T07:04:05Z</time>
      </trkpt>
      <trkpt lat="48.6325" lon="2.00199">
        <ele>128.2</ele>
        <time>2023-06-23T07:04:11Z</time>
      </trkpt>
      <trkpt lat="48.63241" lon="2.00206">
        <ele>128.2</ele>
        <time>2023-06-23T07:04:20Z</time>
      </trkpt>
      <trkpt lat="48.63232" lon="2.00206">
        <ele>128</ele>
        <time>2023-06-23T07:04:29Z</time>
      </trkpt>
      <trkpt lat="48.63222" lon="2.00207">
        <ele>127.9</ele>
        <time>2023-06-23T07:04:37Z</time>
      </trkpt>
      <trkpt lat="48.63213" lon="2.0021">
        <ele>127.8</ele>
        <time>2023-06-23T07:04:44Z</time>
      </trkpt>
      <trkpt lat="48.63204" lon="2.00212">
        <ele>127.6</ele>
        <time>2023-06-23T07:04:50Z</time>
      </trkpt>
      <trkpt lat="48.63195" lon="2.00209">
        <ele>127.1</ele>
        <time>2023-06-23T07:04:56Z</time>
      </trkpt>
      <trkpt lat="48.63186" lon="2.00212">
        <ele>126.8</ele>
        <time>2023-06-23T07:05:02Z</time>
      </trkpt>
      <trkpt lat="48.63176" lon="2.00214">
        <ele>126.3</ele>
        <time>2023-06-23T07:05:08Z</time>
      </trkpt>
      <trkpt lat="48.63166" lon="2.00218">
        <ele>125.8</ele>
        <time>2023-06-23T07:05:14Z</time>
      </trkpt>
      <trkpt lat="48.63156" lon="2.00222">
        <ele>125.6</ele>
        <time>2023-06-23T07:05:20Z</time>
      </trkpt>
      <trkpt lat="48.63147" lon="2.00226">
        <ele>125.6</ele>
        <time>2023-06-23T07:05:26Z</time>
      </trkpt>
      <trkpt lat="48.63138" lon="2.0023">
        <ele>125.5</ele>
        <time>2023-06-23T07:05:31Z</time>
      </trkpt>
      <trkpt lat="48.63128" lon="2.0023">
        <ele>125.3</ele>
        <time>2023-06-23T07:05:37Z</time>
      </trkpt>
      <trkpt lat="48.63119" lon="2.00234">
        <ele>125.4</ele>
        <time>2023-06-23T07:05:44Z</time>
      </trkpt>
      <trkpt lat="48.6311" lon="2.0024">
        <ele>126</ele>
        <time>2023-06-23T07:05:50Z</time>
      </trkpt>
      <trkpt lat="48.631" lon="2.00244">
        <ele>126.7</ele>
        <time>2023-06-23T07:05:57Z</time>
      </trkpt>
      <trkpt lat="48.63091" lon="2.00247">
        <ele>127.3</ele>
        <time>2023-06-23T07:06:04Z</time>
      </trkpt>
      <trkpt lat="48.63082" lon="2.0025">
        <ele>128</ele>
        <time>2023-06-23T07:06:12Z</time>
      </trkpt>
      <trkpt lat="48.63073" lon="2.00253">
        <ele>128</ele>
        <time>2023-06-23T07:06:19Z</time>
      </trkpt>
      <trkpt lat="48.63063" lon="2.00258">
        <ele>128.4</ele>
        <time>2023-06-23T07:06:26Z</time>
      </trkpt>
      <trkpt lat="48.63054" lon="2.00261">
        <ele>128.6</ele>
        <time>2023-06-23T07:06:34Z</time>
      </trkpt>
      <trkpt lat="48.63045" lon="2.00265">
        <ele>128.6</ele>
        <time>2023-06-23T07:06:41Z</time>
      </trkpt>
      <trkpt lat="48.63035" lon="2.00272">
        <ele>128.8</ele>
        <time>2023-06-23T07:06:48Z</time>
      </trkpt>
      <trkpt lat="48.63027" lon="2.00278">
        <ele>129</ele>
        <time>2023-06-23T07:06:56Z</time>
      </trkpt>
      <trkpt lat="48.63019" lon="2.00288">
        <ele>129</ele>
        <time>2023-06-23T07:07:04Z</time>
      </trkpt>
      <trkpt lat="48.63012" lon="2.003">
        <ele>129</ele>
        <time>2023-06-23T07:07:13Z</time>
      </trkpt>
      <trkpt lat="48.63005" lon="2.00311">
        <ele>128.6</ele>
        <time>2023-06-23T07:07:20Z</time>
      </trkpt>
      <trkpt lat="48.62999" lon="2.00322">
        <ele>127.9</ele>
        <time>2023-06-23T07:07:26Z</time>
      </trkpt>
      <trkpt lat="48.62992" lon="2.00332">
        <ele>127.4</ele>
        <time>2023-06-23T07:07:34Z</time>
      </trkpt>
      <trkpt lat="48.62985" lon="2.0034">
        <ele>126.9</ele>
        <time>2023-06-23T07:07:41Z</time>
      </trkpt>
      <trkpt lat="48.62977" lon="2.00349">
        <ele>126.4</ele>
        <time>2023-06-23T07:07:48Z</time>
      </trkpt>
      <trkpt lat="48.62971" lon="2.00358">
        <ele>125.9</ele>
        <time>2023-06-23T07:07:55Z</time>
      </trkpt>
      <trkpt lat="48.62963" lon="2.00368">
        <ele>125.9</ele>
        <time>2023-06-23T07:08:01Z</time>
      </trkpt>
      <trkpt lat="48.62956" lon="2.00376">
        <ele>125.9</ele>
        <time>2023-06-23T07:08:08Z</time>
      </trkpt>
      <trkpt lat="48.62948" lon="2.00384">
        <ele>125.9</ele>
        <time>2023-06-23T07:08:14Z</time>
      </trkpt>
      <trkpt lat="48.6294" lon="2.00392">
        <ele>125.8</ele>
        <time>2023-06-23T07:08:21Z</time>
      </trkpt>
      <trkpt lat="48.62934" lon="2.00402">
        <ele>125.7</ele>
        <time>2023-06-23T07:10:08Z</time>
      </trkpt>
      <trkpt lat="48.6294" lon="2.00414">
        <ele>126.6</ele>
        <time>2023-06-23T07:11:48Z</time>
      </trkpt>
      <trkpt lat="48.62943" lon="2.00427">
        <ele>127.7</ele>
        <time>2023-06-23T07:11:57Z</time>
      </trkpt>
      <trkpt lat="48.62945" lon="2.00441">
        <ele>128.8</ele>
        <time>2023-06-23T07:12:06Z</time>
      </trkpt>
      <trkpt lat="48.62949" lon="2.00453">
        <ele>129.8</ele>
        <time>2023-06-23T07:12:13Z</time>
      </trkpt>
      <trkpt lat="48.62953" lon="2.00467">
        <ele>130.7</ele>
        <time>2023-06-23T07:12:20Z</time>
      </trkpt>
      <trkpt lat="48.62958" lon="2.0048">
        <ele>131.6</ele>
        <time>2023-06-23T07:12:28Z</time>
      </trkpt>
      <trkpt lat="48.62964" lon="2.00491">
        <ele>132.3</ele>
        <time>2023-06-23T07:12:36Z</time>
      </trkpt>
      <trkpt lat="48.62971" lon="2.00499">
        <ele>133</ele>
        <time>2023-06-23T07:12:44Z</time>
      </trkpt>
      <trkpt lat="48.62977" lon="2.0051">
        <ele>134.4</ele>
        <time>2023-06-23T07:12:53Z</time>
      </trkpt>
      <trkpt lat="48.62983" lon="2.00521">
        <ele>135.8</ele>
        <time>2023-06-23T07:13:02Z</time>
      </trkpt>
      <trkpt lat="48.62985" lon="2.00535">
        <ele>137.5</ele>
        <time>2023-06-23T07:13:11Z</time>
      </trkpt>
      <trkpt lat="48.62991" lon="2.00547">
        <ele>139.4</ele>
        <time>2023-06-23T07:13:19Z</time>
      </trkpt>
      <trkpt lat="48.62996" lon="2.00558">
        <ele>141.1</ele>
        <time>2023-06-23T07:13:26Z</time>
      </trkpt>
      <trkpt lat="48.63002" lon="2.00569">
        <ele>142.5</ele>
        <time>2023-06-23T07:13:33Z</time>
      </trkpt>
      <trkpt lat="48.63007" lon="2.00583">
        <ele>144</ele>
        <time>2023-06-23T07:13:42Z</time>
      </trkpt>
      <trkpt lat="48.63011" lon="2.00596">
        <ele>145.8</ele>
        <time>2023-06-23T07:13:53Z</time>
      </trkpt>
      <trkpt lat="48.63015" lon="2.00609">
        <ele>147.8</ele>
        <time>2023-06-23T07:14:03Z</time>
      </trkpt>
      <trkpt lat="48.63016" lon="2.00623">
        <ele>148.7</ele>
        <time>2023-06-23T07:14:12Z</time>
      </trkpt>
      <trkpt lat="48.63015" lon="2.00637">
        <ele>149.4</ele>
        <time>2023-06-23T07:14:38Z</time>
      </trkpt>
      <trkpt lat="48.63011" lon="2.0065">
        <ele>148.8</ele>
        <time>2023-06-23T07:14:49Z</time>
      </trkpt>
      <trkpt lat="48.63012" lon="2.00664">
        <ele>148</ele>
        <time>2023-06-23T07:14:58Z</time>
      </trkpt>
      <trkpt lat="48.63019" lon="2.00676">
        <ele>147.1</ele>
        <time>2023-06-23T07:15:06Z</time>
      </trkpt>
      <trkpt lat="48.63022" lon="2.0069">
        <ele>145.7</ele>
        <time>2023-06-23T07:15:15Z</time>
      </trkpt>
      <trkpt lat="48.63023" lon="2.00705">
        <ele>144.2</ele>
        <time>2023-06-23T07:15:24Z</time>
      </trkpt>
      <trkpt lat="48.63022" lon="2.0072">
        <ele>142.3</ele>
        <time>2023-06-23T07:15:32Z</time>
      </trkpt>
      <trkpt lat="48.63023" lon="2.00734">
        <ele>141.4</ele>
        <time>2023-06-23T07:15:39Z</time>
      </trkpt>
      <trkpt lat="48.63026" lon="2.00749">
        <ele>140.8</ele>
        <time>2023-06-23T07:15:45Z</time>
      </trkpt>
      <trkpt lat="48.63028" lon="2.00764">
        <ele>140</ele>
        <time>2023-06-23T07:15:53Z</time>
      </trkpt>
      <trkpt lat="48.63028" lon="2.00778">
        <ele>139.1</ele>
        <time>2023-06-23T07:15:59Z</time>
      </trkpt>
      <trkpt lat="48.6303" lon="2.00792">
        <ele>138.6</ele>
        <time>2023-06-23T07:16:05Z</time>
      </trkpt>
      <trkpt lat="48.63031" lon="2.00806">
        <ele>137.8</ele>
        <time>2023-06-23T07:16:12Z</time>
      </trkpt>
      <trkpt lat="48.6303" lon="2.0082">
        <ele>136.9</ele>
        <time>2023-06-23T07:16:17Z</time>
      </trkpt>
      <trkpt lat="48.63029" lon="2.00836">
        <ele>135.9</ele>
        <time>2023-06-23T07:16:23Z</time>
      </trkpt>
      <trkpt lat="48.63029" lon="2.00852">
        <ele>134.8</ele>
        <time>2023-06-23T07:16:30Z</time>
      </trkpt>
      <trkpt lat="48.63029" lon="2.00867">
        <ele>134</ele>
        <time>2023-06-23T07:16:37Z</time>
      </trkpt>
      <trkpt lat="48.6303" lon="2.00883">
        <ele>133.5</ele>
        <time>2023-06-23T07:16:44Z</time>
      </trkpt>
      <trkpt lat="48.6303" lon="2.00898">
        <ele>133.2</ele>
        <time>2023-06-23T07:16:50Z</time>
      </trkpt>
      <trkpt lat="48.63027" lon="2.00912">
        <ele>133</ele>
        <time>2023-06-23T07:16:56Z</time>
      </trkpt>
      <trkpt lat="48.63026" lon="2.00926">
        <ele>133.6</ele>
        <time>2023-06-23T07:17:30Z</time>
      </trkpt>
      <trkpt lat="48.63025" lon="2.0094">
        <ele>134.7</ele>
        <time>2023-06-23T07:17:38Z</time>
      </trkpt>
      <trkpt lat="48.63018" lon="2.00951">
        <ele>136</ele>
        <time>2023-06-23T07:17:46Z</time>
      </trkpt>
      <trkpt lat="48.63009" lon="2.00957">
        <ele>137.2</ele>
        <time>2023-06-23T07:17:52Z</time>
      </trkpt>
      <trkpt lat="48.63" lon="2.00962">
        <ele>138.2</ele>
        <time>2023-06-23T07:17:57Z</time>
      </trkpt>
      <trkpt lat="48.62992" lon="2.0097">
        <ele>139.8</ele>
        <time>2023-06-23T07:18:04Z</time>
      </trkpt>
      <trkpt lat="48.62982" lon="2.0097">
        <ele>140.2</ele>
        <time>2023-06-23T07:18:15Z</time>
      </trkpt>
      <trkpt lat="48.62973" lon="2.00967">
        <ele>139.9</ele>
        <time>2023-06-23T07:18:24Z</time>
      </trkpt>
      <trkpt lat="48.62964" lon="2.0096">
        <ele>138</ele>
        <time>2023-06-23T07:18:34Z</time>
      </trkpt>
      <trkpt lat="48.62954" lon="2.0096">
        <ele>137.3</ele>
        <time>2023-06-23T07:18:41Z</time>
      </trkpt>
      <trkpt lat="48.62945" lon="2.00963">
        <ele>137.4</ele>
        <time>2023-06-23T07:18:49Z</time>
      </trkpt>
      <trkpt lat="48.62936" lon="2.00955">
        <ele>134.9</ele>
        <time>2023-06-23T07:18:58Z</time>
      </trkpt>
      <trkpt lat="48.62928" lon="2.00948">
        <ele>132.7</ele>
        <time>2023-06-23T07:19:05Z</time>
      </trkpt>
      <trkpt lat="48.62918" lon="2.00945">
        <ele>131.2</ele>
        <time>2023-06-23T07:19:14Z</time>
      </trkpt>
      <trkpt lat="48.6291" lon="2.00951">
        <ele>131.3</ele>
        <time>2023-06-23T07:19:22Z</time>
      </trkpt>
      <trkpt lat="48.62902" lon="2.0096">
        <ele>131.7</ele>
        <time>2023-06-23T07:19:29Z</time>
      </trkpt>
      <trkpt lat="48.62896" lon="2.00972">
        <ele>132.5</ele>
        <time>2023-06-23T07:19:37Z</time>
      </trkpt>
      <trkpt lat="48.62891" lon="2.00985">
        <ele>133.1</ele>
        <time>2023-06-23T07:19:46Z</time>
      </trkpt>
      <trkpt lat="48.62887" lon="2.00999">
        <ele>133.8</ele>
        <time>2023-06-23T07:19:54Z</time>
      </trkpt>
      <trkpt lat="48.62884" lon="2.01013">
        <ele>133.9</ele>
        <time>2023-06-23T07:20:03Z</time>
      </trkpt>
      <trkpt lat="48.6288" lon="2.01027">
        <ele>134</ele>
        <time>2023-06-23T07:20:12Z</time>
      </trkpt>
      <trkpt lat="48.62878" lon="2.01042">
        <ele>134.7</ele>
        <time>2023-06-23T07:20:19Z</time>
      </trkpt>
      <trkpt lat="48.62872" lon="2.01054">
        <ele>134.5</ele>
        <time>2023-06-23T07:20:26Z</time>
      </trkpt>
      <trkpt lat="48.62869" lon="2.01068">
        <ele>134.6</ele>
        <time>2023-06-23T07:20:34Z</time>
      </trkpt>
      <trkpt lat="48.62864" lon="2.01079">
        <ele>134.3</ele>
        <time>2023-06-23T07:20:39Z</time>
      </trkpt>
      <trkpt lat="48.62859" lon="2.01093">
        <ele>134.5</ele>
        <time>2023-06-23T07:20:45Z</time>
      </trkpt>
      <trkpt lat="48.62854" lon="2.01104">
        <ele>134.9</ele>
        <time>2023-06-23T07:20:52Z</time>
      </trkpt>
      <trkpt lat="48.62846" lon="2.01114">
        <ele>135</ele>
        <time>2023-06-23T07:20:59Z</time>
      </trkpt>
      <trkpt lat="48.62839" lon="2.01123">
        <ele>134.8</ele>
        <time>2023-06-23T07:21:07Z</time>
      </trkpt>
      <trkpt lat="48.62831" lon="2.0113">
        <ele>134.4</ele>
        <time>2023-06-23T07:21:15Z</time>
      </trkpt>
      <trkpt lat="48.62824" lon="2.0114">
        <ele>134</ele>
        <time>2023-06-23T07:21:24Z</time>
      </trkpt>
      <trkpt lat="48.62814" lon="2.01144">
        <ele>133.1</ele>
        <time>2023-06-23T07:21:38Z</time>
      </trkpt>
      <trkpt lat="48.62805" lon="2.01144">
        <ele>132.2</ele>
        <time>2023-06-23T07:21:47Z</time>
      </trkpt>
      <trkpt lat="48.62796" lon="2.0114">
        <ele>131.7</ele>
        <time>2023-06-23T07:22:00Z</time>
      </trkpt>
      <trkpt lat="48.62787" lon="2.01138">
        <ele>131.3</ele>
        <time>2023-06-23T07:22:07Z</time>
      </trkpt>
      <trkpt lat="48.62778" lon="2.01137">
        <ele>130.9</ele>
        <time>2023-06-23T07:22:15Z</time>
      </trkpt>
      <trkpt lat="48.62768" lon="2.01138">
        <ele>130.9</ele>
        <time>2023-06-23T07:22:26Z</time>
      </trkpt>
      <trkpt lat="48.62758" lon="2.0114">
        <ele>131.1</ele>
        <time>2023-06-23T07:22:34Z</time>
      </trkpt>
      <trkpt lat="48.62748" lon="2.01144">
        <ele>131.6</ele>
        <time>2023-06-23T07:22:43Z</time>
      </trkpt>
      <trkpt lat="48.62739" lon="2.01151">
        <ele>132.2</ele>
        <time>2023-06-23T07:22:52Z</time>
      </trkpt>
      <trkpt lat="48.62733" lon="2.01162">
        <ele>133</ele>
        <time>2023-06-23T07:23:03Z</time>
      </trkpt>
      <trkpt lat="48.62726" lon="2.01171">
        <ele>133.5</ele>
        <time>2023-06-23T07:23:12Z</time>
      </trkpt>
      <trkpt lat="48.62718" lon="2.0118">
        <ele>133.7</ele>
        <time>2023-06-23T07:23:20Z</time>
      </trkpt>
      <trkpt lat="48.6271" lon="2.01189">
        <ele>133.5</ele>
        <time>2023-06-23T07:23:28Z</time>
      </trkpt>
      <trkpt lat="48.62704" lon="2.01201">
        <ele>133.6</ele>
        <time>2023-06-23T07:23:35Z</time>
      </trkpt>
      <trkpt lat="48.62698" lon="2.01211">
        <ele>133.6</ele>
        <time>2023-06-23T07:23:41Z</time>
      </trkpt>
      <trkpt lat="48.62694" lon="2.01225">
        <ele>134.1</ele>
        <time>2023-06-23T07:23:49Z</time>
      </trkpt>
      <trkpt lat="48.62691" lon="2.01239">
        <ele>134.4</ele>
        <time>2023-06-23T07:23:58Z</time>
      </trkpt>
      <trkpt lat="48.62687" lon="2.01251">
        <ele>134.6</ele>
        <time>2023-06-23T07:24:07Z</time>
      </trkpt>
      <trkpt lat="48.62683" lon="2.01264">
        <ele>135.4</ele>
        <time>2023-06-23T07:24:15Z</time>
      </trkpt>
      <trkpt lat="48.62679" lon="2.01276">
        <ele>136.2</ele>
        <time>2023-06-23T07:24:23Z</time>
      </trkpt>
      <trkpt lat="48.62673" lon="2.01288">
        <ele>136.8</ele>
        <time>2023-06-23T07:24:34Z</time>
      </trkpt>
      <trkpt lat="48.62666" lon="2.01298">
        <ele>137.2</ele>
        <time>2023-06-23T07:24:46Z</time>
      </trkpt>
      <trkpt lat="48.62657" lon="2.01302">
        <ele>137.6</ele>
        <time>2023-06-23T07:24:54Z</time>
      </trkpt>
      <trkpt lat="48.62648" lon="2.01308">
        <ele>138.2</ele>
        <time>2023-06-23T07:25:03Z</time>
      </trkpt>
      <trkpt lat="48.62639" lon="2.01308">
        <ele>138.2</ele>
        <time>2023-06-23T07:25:11Z</time>
      </trkpt>
      <trkpt lat="48.6263" lon="2.01304">
        <ele>137.9</ele>
        <time>2023-06-23T07:25:17Z</time>
      </trkpt>
      <trkpt lat="48.6262" lon="2.013">
        <ele>137.5</ele>
        <time>2023-06-23T07:25:24Z</time>
      </trkpt>
      <trkpt lat="48.62611" lon="2.013">
        <ele>137.6</ele>
        <time>2023-06-23T07:25:31Z</time>
      </trkpt>
      <trkpt lat="48.62602" lon="2.01304">
        <ele>137.9</ele>
        <time>2023-06-23T07:25:38Z</time>
      </trkpt>
      <trkpt lat="48.62594" lon="2.01308">
        <ele>138.1</ele>
        <time>2023-06-23T07:25:45Z</time>
      </trkpt>
      <trkpt lat="48.62585" lon="2.01314">
        <ele>138.3</ele>
        <time>2023-06-23T07:25:53Z</time>
      </trkpt>
      <trkpt lat="48.62578" lon="2.01323">
        <ele>138.6</ele>
        <time>2023-06-23T07:25:59Z</time>
      </trkpt>
      <trkpt lat="48.62566" lon="2.0133">
        <ele>138.9</ele>
        <time>2023-06-23T07:28:02Z</time>
      </trkpt>
      <trkpt lat="48.62569" lon="2.01343">
        <ele>139.4</ele>
        <time>2023-06-23T07:31:08Z</time>
      </trkpt>
      <trkpt lat="48.62572" lon="2.01357">
        <ele>139.9</ele>
        <time>2023-06-23T07:31:18Z</time>
      </trkpt>
      <trkpt lat="48.62575" lon="2.01372">
        <ele>140.3</ele>
        <time>2023-06-23T07:31:28Z</time>
      </trkpt>
      <trkpt lat="48.62578" lon="2.01386">
        <ele>140.7</ele>
        <time>2023-06-23T07:31:37Z</time>
      </trkpt>
      <trkpt lat="48.62582" lon="2.014">
        <ele>141</ele>
        <time>2023-06-23T07:31:46Z</time>
      </trkpt>
      <trkpt lat="48.62585" lon="2.01414">
        <ele>141</ele>
        <time>2023-06-23T07:31:54Z</time>
      </trkpt>
      <trkpt lat="48.62588" lon="2.01428">
        <ele>140.6</ele>
        <time>2023-06-23T07:32:01Z</time>
      </trkpt>
      <trkpt lat="48.62591" lon="2.01443">
        <ele>140.1</ele>
        <time>2023-06-23T07:32:07Z</time>
      </trkpt>
      <trkpt lat="48.62594" lon="2.01455">
        <ele>139.6</ele>
        <time>2023-06-23T07:32:13Z</time>
      </trkpt>
      <trkpt lat="48.626" lon="2.01467">
        <ele>139.2</ele>
        <time>2023-06-23T07:32:21Z</time>
      </trkpt>
      <trkpt lat="48.62605" lon="2.01479">
        <ele>138.8</ele>
        <time>2023-06-23T07:32:29Z</time>
      </trkpt>
      <trkpt lat="48.6261" lon="2.01491">
        <ele>138.3</ele>
        <time>2023-06-23T07:32:40Z</time>
      </trkpt>
      <trkpt lat="48.62616" lon="2.01504">
        <ele>137.7</ele>
        <time>2023-06-23T07:32:47Z</time>
      </trkpt>
      <trkpt lat="48.6262" lon="2.01517">
        <ele>137.1</ele>
        <time>2023-06-23T07:32:58Z</time>
      </trkpt>
      <trkpt lat="48.62623" lon="2.01532">
        <ele>136.4</ele>
        <time>2023-06-23T07:33:06Z</time>
      </trkpt>
      <trkpt lat="48.62625" lon="2.01546">
        <ele>135.9</ele>
        <time>2023-06-23T07:33:12Z</time>
      </trkpt>
      <trkpt lat="48.62625" lon="2.01561">
        <ele>135.4</ele>
        <time>2023-06-23T07:33:18Z</time>
      </trkpt>
      <trkpt lat="48.6263" lon="2.01574">
        <ele>135.2</ele>
        <time>2023-06-23T07:33:27Z</time>
      </trkpt>
      <trkpt lat="48.62635" lon="2.01587">
        <ele>135.1</ele>
        <time>2023-06-23T07:33:33Z</time>
      </trkpt>
      <trkpt lat="48.62639" lon="2.01601">
        <ele>135.6</ele>
        <time>2023-06-23T07:33:37Z</time>
      </trkpt>
      <trkpt lat="48.62629" lon="2.01604">
        <ele>135.5</ele>
        <time>2023-06-23T07:33:48Z</time>
      </trkpt>
      <trkpt lat="48.6262" lon="2.01608">
        <ele>135.3</ele>
        <time>2023-06-23T07:33:56Z</time>
      </trkpt>
      <trkpt lat="48.62612" lon="2.01614">
        <ele>135.1</ele>
        <time>2023-06-23T07:34:07Z</time>
      </trkpt>
      <trkpt lat="48.62605" lon="2.01624">
        <ele>135.2</ele>
        <time>2023-06-23T07:34:15Z</time>
      </trkpt>
      <trkpt lat="48.626" lon="2.01635">
        <ele>135.1</ele>
        <time>2023-06-23T07:34:29Z</time>
      </trkpt>
      <trkpt lat="48.62592" lon="2.01643">
        <ele>134.6</ele>
        <time>2023-06-23T07:34:38Z</time>
      </trkpt>
      <trkpt lat="48.62584" lon="2.01651">
        <ele>134.1</ele>
        <time>2023-06-23T07:34:45Z</time>
      </trkpt>
      <trkpt lat="48.62575" lon="2.0166">
        <ele>133.5</ele>
        <time>2023-06-23T07:34:53Z</time>
      </trkpt>
      <trkpt lat="48.62568" lon="2.01668">
        <ele>132.9</ele>
        <time>2023-06-23T07:34:59Z</time>
      </trkpt>
      <trkpt lat="48.6256" lon="2.01674">
        <ele>132.3</ele>
        <time>2023-06-23T07:35:04Z</time>
      </trkpt>
      <trkpt lat="48.62554" lon="2.01685">
        <ele>132</ele>
        <time>2023-06-23T07:35:11Z</time>
      </trkpt>
      <trkpt lat="48.62547" lon="2.01694">
        <ele>131.7</ele>
        <time>2023-06-23T07:35:19Z</time>
      </trkpt>
      <trkpt lat="48.6254" lon="2.01705">
        <ele>131.6</ele>
        <time>2023-06-23T07:35:25Z</time>
      </trkpt>
      <trkpt lat="48.62533" lon="2.01714">
        <ele>131.3</ele>
        <time>2023-06-23T07:35:33Z</time>
      </trkpt>
      <trkpt lat="48.62526" lon="2.01724">
        <ele>131.1</ele>
        <time>2023-06-23T07:35:39Z</time>
      </trkpt>
      <trkpt lat="48.62517" lon="2.01732">
        <ele>131</ele>
        <time>2023-06-23T07:35:45Z</time>
      </trkpt>
      <trkpt lat="48.62509" lon="2.01736">
        <ele>130.6</ele>
        <time>2023-06-23T07:35:52Z</time>
      </trkpt>
      <trkpt lat="48.62499" lon="2.0174">
        <ele>130</ele>
        <time>2023-06-23T07:35:59Z</time>
      </trkpt>
      <trkpt lat="48.62491" lon="2.01746">
        <ele>129.7</ele>
        <time>2023-06-23T07:36:06Z</time>
      </trkpt>
      <trkpt lat="48.62481" lon="2.01749">
        <ele>129.3</ele>
        <time>2023-06-23T07:36:13Z</time>
      </trkpt>
      <trkpt lat="48.62471" lon="2.01753">
        <ele>129</ele>
        <time>2023-06-23T07:36:20Z</time>
      </trkpt>
      <trkpt lat="48.62462" lon="2.01755">
        <ele>128.5</ele>
        <time>2023-06-23T07:36:25Z</time>
      </trkpt>
      <trkpt lat="48.62451" lon="2.01757">
        <ele>128.1</ele>
        <time>2023-06-23T07:36:30Z</time>
      </trkpt>
      <trkpt lat="48.62443" lon="2.01763">
        <ele>127.4</ele>
        <time>2023-06-23T07:36:36Z</time>
      </trkpt>
      <trkpt lat="48.62434" lon="2.01765">
        <ele>126.9</ele>
        <time>2023-06-23T07:36:42Z</time>
      </trkpt>
      <trkpt lat="48.62424" lon="2.01761">
        <ele>126.4</ele>
        <time>2023-06-23T07:36:49Z</time>
      </trkpt>
      <trkpt lat="48.62414" lon="2.0176">
        <ele>125.9</ele>
        <time>2023-06-23T07:36:55Z</time>
      </trkpt>
      <trkpt lat="48.62404" lon="2.01763">
        <ele>125.5</ele>
        <time>2023-06-23T07:37:01Z</time>
      </trkpt>
      <trkpt lat="48.62394" lon="2.01763">
        <ele>125.2</ele>
        <time>2023-06-23T07:37:08Z</time>
      </trkpt>
      <trkpt lat="48.62384" lon="2.01761">
        <ele>125</ele>
        <time>2023-06-23T07:37:14Z</time>
      </trkpt>
      <trkpt lat="48.62376" lon="2.01768">
        <ele>125</ele>
        <time>2023-06-23T07:37:21Z</time>
      </trkpt>
      <trkpt lat="48.62365" lon="2.0177">
        <ele>125</ele>
        <time>2023-06-23T07:37:29Z</time>
      </trkpt>
      <trkpt lat="48.62356" lon="2.01766">
        <ele>124.9</ele>
        <time>2023-06-23T07:37:35Z</time>
      </trkpt>
      <trkpt lat="48.62346" lon="2.01761">
        <ele>124.7</ele>
        <time>2023-06-23T07:37:41Z</time>
      </trkpt>
      <trkpt lat="48.62336" lon="2.01757">
        <ele>124.3</ele>
        <time>2023-06-23T07:37:47Z</time>
      </trkpt>
      <trkpt lat="48.62328" lon="2.01749">
        <ele>124</ele>
        <time>2023-06-23T07:37:52Z</time>
      </trkpt>
      <trkpt lat="48.6232" lon="2.01739">
        <ele>123.8</ele>
        <time>2023-06-23T07:37:59Z</time>
      </trkpt>
      <trkpt lat="48.62314" lon="2.01728">
        <ele>123.5</ele>
        <time>2023-06-23T07:38:06Z</time>
      </trkpt>
      <trkpt lat="48.62308" lon="2.01718">
        <ele>123.1</ele>
        <time>2023-06-23T07:38:13Z</time>
      </trkpt>
      <trkpt lat="48.62301" lon="2.01708">
        <ele>123</ele>
        <time>2023-06-23T07:38:20Z</time>
      </trkpt>
      <trkpt lat="48.62294" lon="2.01699">
        <ele>123</ele>
        <time>2023-06-23T07:38:27Z</time>
      </trkpt>
      <trkpt lat="48.62287" lon="2.01688">
        <ele>123.1</ele>
        <time>2023-06-23T07:38:35Z</time>
      </trkpt>
      <trkpt lat="48.6228" lon="2.01677">
        <ele>123</ele>
        <time>2023-06-23T07:38:42Z</time>
      </trkpt>
      <trkpt lat="48.62271" lon="2.01668">
        <ele>123</ele>
        <time>2023-06-23T07:38:49Z</time>
      </trkpt>
      <trkpt lat="48.62263" lon="2.01662">
        <ele>123</ele>
        <time>2023-06-23T07:38:55Z</time>
      </trkpt>
      <trkpt lat="48.62257" lon="2.01651">
        <ele>123</ele>
        <time>2023-06-23T07:39:11Z</time>
      </trkpt>
      <trkpt lat="48.6225" lon="2.01642">
        <ele>123</ele>
        <time>2023-06-23T07:39:54Z</time>
      </trkpt>
      <trkpt lat="48.62241" lon="2.01638">
        <ele>123</ele>
        <time>2023-06-23T07:40:24Z</time>
      </trkpt>
      <trkpt lat="48.62232" lon="2.01636">
        <ele>123</ele>
        <time>2023-06-23T07:40:40Z</time>
      </trkpt>
      <trkpt lat="48.62222" lon="2.01633">
        <ele>123</ele>
        <time>2023-06-23T07:40:53Z</time>
      </trkpt>
      <trkpt lat="48.62213" lon="2.01627">
        <ele>122.7</ele>
        <time>2023-06-23T07:41:07Z</time>
      </trkpt>
      <trkpt lat="48.62203" lon="2.01625">
        <ele>122.3</ele>
        <time>2023-06-23T07:41:17Z</time>
      </trkpt>
      <trkpt lat="48.62199" lon="2.01612">
        <ele>122.2</ele>
        <time>2023-06-23T07:41:27Z</time>
      </trkpt>
      <trkpt lat="48.62191" lon="2.01603">
        <ele>122.3</ele>
        <time>2023-06-23T07:41:35Z</time>
      </trkpt>
      <trkpt lat="48.62184" lon="2.01594">
        <ele>122.4</ele>
        <time>2023-06-23T07:41:44Z</time>
      </trkpt>
      <trkpt lat="48.62178" lon="2.01584">
        <ele>122.4</ele>
        <time>2023-06-23T07:41:51Z</time>
      </trkpt>
      <trkpt lat="48.62173" lon="2.01572">
        <ele>122.2</ele>
        <time>2023-06-23T07:41:59Z</time>
      </trkpt>
      <trkpt lat="48.62168" lon="2.01559">
        <ele>122</ele>
        <time>2023-06-23T07:42:07Z</time>
      </trkpt>
      <trkpt lat="48.62162" lon="2.01548">
        <ele>122</ele>
        <time>2023-06-23T07:42:15Z</time>
      </trkpt>
      <trkpt lat="48.62155" lon="2.01537">
        <ele>122</ele>
        <time>2023-06-23T07:42:24Z</time>
      </trkpt>
      <trkpt lat="48.62151" lon="2.01523">
        <ele>122</ele>
        <time>2023-06-23T07:42:33Z</time>
      </trkpt>
      <trkpt lat="48.62146" lon="2.01511">
        <ele>122</ele>
        <time>2023-06-23T07:42:42Z</time>
      </trkpt>
      <trkpt lat="48.6214" lon="2.015">
        <ele>122</ele>
        <time>2023-06-23T07:42:51Z</time>
      </trkpt>
      <trkpt lat="48.62136" lon="2.01488">
        <ele>122</ele>
        <time>2023-06-23T07:42:59Z</time>
      </trkpt>
      <trkpt lat="48.62133" lon="2.01474">
        <ele>122</ele>
        <time>2023-06-23T07:43:08Z</time>
      </trkpt>
      <trkpt lat="48.62127" lon="2.01462">
        <ele>122.4</ele>
        <time>2023-06-23T07:43:17Z</time>
      </trkpt>
      <trkpt lat="48.62121" lon="2.01451">
        <ele>122.8</ele>
        <time>2023-06-23T07:43:27Z</time>
      </trkpt>
      <trkpt lat="48.62113" lon="2.01442">
        <ele>123</ele>
        <time>2023-06-23T07:43:37Z</time>
      </trkpt>
      <trkpt lat="48.62108" lon="2.01429">
        <ele>123</ele>
        <time>2023-06-23T07:43:45Z</time>
      </trkpt>
      <trkpt lat="48.62103" lon="2.01417">
        <ele>123</ele>
        <time>2023-06-23T07:43:54Z</time>
      </trkpt>
      <trkpt lat="48.62096" lon="2.01409">
        <ele>123</ele>
        <time>2023-06-23T07:44:03Z</time>
      </trkpt>
      <trkpt lat="48.6209" lon="2.01398">
        <ele>123</ele>
        <time>2023-06-23T07:44:10Z</time>
      </trkpt>
      <trkpt lat="48.62085" lon="2.01386">
        <ele>123</ele>
        <time>2023-06-23T07:44:19Z</time>
      </trkpt>
      <trkpt lat="48.6208" lon="2.01373">
        <ele>123.1</ele>
        <time>2023-06-23T07:44:28Z</time>
      </trkpt>
      <trkpt lat="48.62075" lon="2.0136">
        <ele>123.3</ele>
        <time>2023-06-23T07:44:38Z</time>
      </trkpt>
      <trkpt lat="48.62068" lon="2.01349">
        <ele>123.7</ele>
        <time>2023-06-23T07:44:47Z</time>
      </trkpt>
      <trkpt lat="48.62062" lon="2.01339">
        <ele>124</ele>
        <time>2023-06-23T07:44:56Z</time>
      </trkpt>
      <trkpt lat="48.62057" lon="2.01325">
        <ele>124.3</ele>
        <time>2023-06-23T07:45:04Z</time>
      </trkpt>
      <trkpt lat="48.62053" lon="2.01312">
        <ele>124.8</ele>
        <time>2023-06-23T07:45:12Z</time>
      </trkpt>
      <trkpt lat="48.62046" lon="2.01303">
        <ele>125.1</ele>
        <time>2023-06-23T07:45:20Z</time>
      </trkpt>
      <trkpt lat="48.6204" lon="2.01292">
        <ele>125.7</ele>
        <time>2023-06-23T07:45:30Z</time>
      </trkpt>
      <trkpt lat="48.62034" lon="2.01282">
        <ele>126.5</ele>
        <time>2023-06-23T07:45:38Z</time>
      </trkpt>
      <trkpt lat="48.62027" lon="2.0127">
        <ele>127.3</ele>
        <time>2023-06-23T07:45:46Z</time>
      </trkpt>
      <trkpt lat="48.62021" lon="2.01258">
        <ele>127.7</ele>
        <time>2023-06-23T07:45:55Z</time>
      </trkpt>
      <trkpt lat="48.62014" lon="2.01249">
        <ele>128</ele>
        <time>2023-06-23T07:46:04Z</time>
      </trkpt>
      <trkpt lat="48.6201" lon="2.01235">
        <ele>128</ele>
        <time>2023-06-23T07:46:22Z</time>
      </trkpt>
      <trkpt lat="48.62009" lon="2.01221">
        <ele>128</ele>
        <time>2023-06-23T07:46:29Z</time>
      </trkpt>
      <trkpt lat="48.62005" lon="2.01208">
        <ele>128</ele>
        <time>2023-06-23T07:46:36Z</time>
      </trkpt>
      <trkpt lat="48.62001" lon="2.01196">
        <ele>128</ele>
        <time>2023-06-23T07:46:44Z</time>
      </trkpt>
      <trkpt lat="48.61994" lon="2.01184">
        <ele>127.2</ele>
        <time>2023-06-23T07:46:58Z</time>
      </trkpt>
      <trkpt lat="48.61987" lon="2.01175">
        <ele>126.4</ele>
        <time>2023-06-23T07:47:07Z</time>
      </trkpt>
      <trkpt lat="48.61994" lon="2.01185">
        <ele>127.2</ele>
        <time>2023-06-23T07:47:30Z</time>
      </trkpt>
      <trkpt lat="48.62003" lon="2.01192">
        <ele>127.9</ele>
        <time>2023-06-23T07:47:40Z</time>
      </trkpt>
      <trkpt lat="48.62007" lon="2.0118">
        <ele>127.5</ele>
        <time>2023-06-23T07:48:10Z</time>
      </trkpt>
      <trkpt lat="48.62006" lon="2.01166">
        <ele>126.9</ele>
        <time>2023-06-23T07:48:45Z</time>
      </trkpt>
      <trkpt lat="48.62" lon="2.01156">
        <ele>125.8</ele>
        <time>2023-06-23T07:49:00Z</time>
      </trkpt>
      <trkpt lat="48.61991" lon="2.01159">
        <ele>125.8</ele>
        <time>2023-06-23T07:49:20Z</time>
      </trkpt>
      <trkpt lat="48.61983" lon="2.01166">
        <ele>125.7</ele>
        <time>2023-06-23T07:49:32Z</time>
      </trkpt>
      <trkpt lat="48.61976" lon="2.01177">
        <ele>125.6</ele>
        <time>2023-06-23T07:49:41Z</time>
      </trkpt>
      <trkpt lat="48.61968" lon="2.01186">
        <ele>125.4</ele>
        <time>2023-06-23T07:49:49Z</time>
      </trkpt>
      <trkpt lat="48.61959" lon="2.01191">
        <ele>124.9</ele>
        <time>2023-06-23T07:49:59Z</time>
      </trkpt>
      <trkpt lat="48.61953" lon="2.01202">
        <ele>124.8</ele>
        <time>2023-06-23T07:50:08Z</time>
      </trkpt>
      <trkpt lat="48.61946" lon="2.01212">
        <ele>124.7</ele>
        <time>2023-06-23T07:50:19Z</time>
      </trkpt>
      <trkpt lat="48.61939" lon="2.01222">
        <ele>125</ele>
        <time>2023-06-23T07:50:27Z</time>
      </trkpt>
      <trkpt lat="48.6193" lon="2.01228">
        <ele>125</ele>
        <time>2023-06-23T07:50:33Z</time>
      </trkpt>
      <trkpt lat="48.6192" lon="2.01227">
        <ele>125</ele>
        <time>2023-06-23T07:50:39Z</time>
      </trkpt>
      <trkpt lat="48.61911" lon="2.01225">
        <ele>125</ele>
        <time>2023-06-23T07:50:45Z</time>
      </trkpt>
      <trkpt lat="48.61901" lon="2.01221">
        <ele>125</ele>
        <time>2023-06-23T07:50:53Z</time>
      </trkpt>
      <trkpt lat="48.61891" lon="2.01218">
        <ele>124.9</ele>
        <time>2023-06-23T07:51:00Z</time>
      </trkpt>
      <trkpt lat="48.61881" lon="2.01217">
        <ele>124.5</ele>
        <time>2023-06-23T07:51:06Z</time>
      </trkpt>
      <trkpt lat="48.61872" lon="2.01215">
        <ele>124.1</ele>
        <time>2023-06-23T07:51:14Z</time>
      </trkpt>
      <trkpt lat="48.61863" lon="2.01214">
        <ele>123.8</ele>
        <time>2023-06-23T07:51:21Z</time>
      </trkpt>
      <trkpt lat="48.61853" lon="2.01216">
        <ele>123.8</ele>
        <time>2023-06-23T07:51:28Z</time>
      </trkpt>
      <trkpt lat="48.61842" lon="2.01216">
        <ele>123.8</ele>
        <time>2023-06-23T07:51:36Z</time>
      </trkpt>
      <trkpt lat="48.61833" lon="2.01215">
        <ele>123.7</ele>
        <time>2023-06-23T07:51:43Z</time>
      </trkpt>
      <trkpt lat="48.61824" lon="2.01214">
        <ele>123.8</ele>
        <time>2023-06-23T07:51:48Z</time>
      </trkpt>
      <trkpt lat="48.61814" lon="2.01216">
        <ele>123.9</ele>
        <time>2023-06-23T07:51:53Z</time>
      </trkpt>
      <trkpt lat="48.61806" lon="2.01219">
        <ele>124</ele>
        <time>2023-06-23T07:51:59Z</time>
      </trkpt>
      <trkpt lat="48.61796" lon="2.01222">
        <ele>124</ele>
        <time>2023-06-23T07:52:08Z</time>
      </trkpt>
      <trkpt lat="48.61788" lon="2.01229">
        <ele>124</ele>
        <time>2023-06-23T07:52:17Z</time>
      </trkpt>
      <trkpt lat="48.61781" lon="2.01239">
        <ele>124</ele>
        <time>2023-06-23T07:52:26Z</time>
      </trkpt>
      <trkpt lat="48.61774" lon="2.01248">
        <ele>124</ele>
        <time>2023-06-23T07:52:34Z</time>
      </trkpt>
      <trkpt lat="48.61766" lon="2.01256">
        <ele>124</ele>
        <time>2023-06-23T07:52:41Z</time>
      </trkpt>
      <trkpt lat="48.61757" lon="2.01262">
        <ele>124</ele>
        <time>2023-06-23T07:52:48Z</time>
      </trkpt>
      <trkpt lat="48.6175" lon="2.01271">
        <ele>124</ele>
        <time>2023-06-23T07:52:55Z</time>
      </trkpt>
      <trkpt lat="48.61742" lon="2.01279">
        <ele>123.7</ele>
        <time>2023-06-23T07:53:02Z</time>
      </trkpt>
      <trkpt lat="48.61735" lon="2.01289">
        <ele>123.5</ele>
        <time>2023-06-23T07:53:10Z</time>
      </trkpt>
      <trkpt lat="48.61728" lon="2.01299">
        <ele>123.2</ele>
        <time>2023-06-23T07:53:18Z</time>
      </trkpt>
      <trkpt lat="48.61721" lon="2.0131">
        <ele>123</ele>
        <time>2023-06-23T07:53:26Z</time>
      </trkpt>
      <trkpt lat="48.61713" lon="2.01318">
        <ele>122.7</ele>
        <time>2023-06-23T07:53:33Z</time>
      </trkpt>
      <trkpt lat="48.61706" lon="2.01327">
        <ele>122.4</ele>
        <time>2023-06-23T07:53:40Z</time>
      </trkpt>
      <trkpt lat="48.61699" lon="2.01336">
        <ele>122.2</ele>
        <time>2023-06-23T07:53:47Z</time>
      </trkpt>
      <trkpt lat="48.61692" lon="2.01346">
        <ele>122</ele>
        <time>2023-06-23T07:53:55Z</time>
      </trkpt>
      <trkpt lat="48.61684" lon="2.01355">
        <ele>122</ele>
        <time>2023-06-23T07:54:03Z</time>
      </trkpt>
      <trkpt lat="48.61677" lon="2.01367">
        <ele>121.9</ele>
        <time>2023-06-23T07:54:10Z</time>
      </trkpt>
      <trkpt lat="48.61669" lon="2.01375">
        <ele>121.5</ele>
        <time>2023-06-23T07:54:17Z</time>
      </trkpt>
      <trkpt lat="48.61662" lon="2.01385">
        <ele>121.1</ele>
        <time>2023-06-23T07:54:24Z</time>
      </trkpt>
      <trkpt lat="48.61656" lon="2.01396">
        <ele>121</ele>
        <time>2023-06-23T07:54:32Z</time>
      </trkpt>
      <trkpt lat="48.61649" lon="2.01405">
        <ele>121</ele>
        <time>2023-06-23T07:54:41Z</time>
      </trkpt>
      <trkpt lat="48.61642" lon="2.01415">
        <ele>121</ele>
        <time>2023-06-23T07:54:48Z</time>
      </trkpt>
      <trkpt lat="48.61635" lon="2.01425">
        <ele>120.7</ele>
        <time>2023-06-23T07:54:54Z</time>
      </trkpt>
      <trkpt lat="48.61628" lon="2.01434">
        <ele>120.4</ele>
        <time>2023-06-23T07:55:01Z</time>
      </trkpt>
      <trkpt lat="48.6162" lon="2.0144">
        <ele>120.1</ele>
        <time>2023-06-23T07:55:08Z</time>
      </trkpt>
      <trkpt lat="48.61613" lon="2.0145">
        <ele>120</ele>
        <time>2023-06-23T07:55:16Z</time>
      </trkpt>
      <trkpt lat="48.61606" lon="2.0146">
        <ele>120.3</ele>
        <time>2023-06-23T07:55:24Z</time>
      </trkpt>
      <trkpt lat="48.61598" lon="2.0147">
        <ele>120.5</ele>
        <time>2023-06-23T07:55:31Z</time>
      </trkpt>
      <trkpt lat="48.6159" lon="2.01479">
        <ele>120.8</ele>
        <time>2023-06-23T07:55:38Z</time>
      </trkpt>
      <trkpt lat="48.61581" lon="2.01488">
        <ele>121</ele>
        <time>2023-06-23T07:55:45Z</time>
      </trkpt>
      <trkpt lat="48.61575" lon="2.01497">
        <ele>121</ele>
        <time>2023-06-23T07:55:53Z</time>
      </trkpt>
      <trkpt lat="48.61566" lon="2.01504">
        <ele>120.9</ele>
        <time>2023-06-23T07:56:00Z</time>
      </trkpt>
      <trkpt lat="48.61557" lon="2.01509">
        <ele>121</ele>
        <time>2023-06-23T07:56:07Z</time>
      </trkpt>
      <trkpt lat="48.61547" lon="2.01514">
        <ele>121.1</ele>
        <time>2023-06-23T07:56:14Z</time>
      </trkpt>
      <trkpt lat="48.61538" lon="2.01518">
        <ele>121.2</ele>
        <time>2023-06-23T07:56:21Z</time>
      </trkpt>
      <trkpt lat="48.61528" lon="2.01519">
        <ele>121.3</ele>
        <time>2023-06-23T07:56:28Z</time>
      </trkpt>
      <trkpt lat="48.61518" lon="2.0152">
        <ele>121.3</ele>
        <time>2023-06-23T07:56:36Z</time>
      </trkpt>
      <trkpt lat="48.61508" lon="2.0152">
        <ele>121.3</ele>
        <time>2023-06-23T07:56:43Z</time>
      </trkpt>
      <trkpt lat="48.61499" lon="2.01521">
        <ele>121.3</ele>
        <time>2023-06-23T07:56:49Z</time>
      </trkpt>
      <trkpt lat="48.61489" lon="2.01523">
        <ele>121.2</ele>
        <time>2023-06-23T07:56:56Z</time>
      </trkpt>
      <trkpt lat="48.6148" lon="2.01524">
        <ele>121.1</ele>
        <time>2023-06-23T07:57:02Z</time>
      </trkpt>
      <trkpt lat="48.6147" lon="2.01526">
        <ele>121.1</ele>
        <time>2023-06-23T07:57:08Z</time>
      </trkpt>
      <trkpt lat="48.61461" lon="2.01526">
        <ele>121.1</ele>
        <time>2023-06-23T07:57:14Z</time>
      </trkpt>
      <trkpt lat="48.61451" lon="2.01523">
        <ele>121.2</ele>
        <time>2023-06-23T07:57:21Z</time>
      </trkpt>
      <trkpt lat="48.61441" lon="2.01523">
        <ele>121.2</ele>
        <time>2023-06-23T07:57:28Z</time>
      </trkpt>
      <trkpt lat="48.61431" lon="2.01523">
        <ele>121.2</ele>
        <time>2023-06-23T07:57:36Z</time>
      </trkpt>
      <trkpt lat="48.61421" lon="2.01524">
        <ele>121.1</ele>
        <time>2023-06-23T07:57:43Z</time>
      </trkpt>
      <trkpt lat="48.61411" lon="2.01524">
        <ele>121.3</ele>
        <time>2023-06-23T07:57:50Z</time>
      </trkpt>
      <trkpt lat="48.61402" lon="2.01524">
        <ele>121.6</ele>
        <time>2023-06-23T07:57:57Z</time>
      </trkpt>
      <trkpt lat="48.61393" lon="2.01526">
        <ele>121.9</ele>
        <time>2023-06-23T07:58:04Z</time>
      </trkpt>
      <trkpt lat="48.61383" lon="2.01527">
        <ele>121.8</ele>
        <time>2023-06-23T07:58:11Z</time>
      </trkpt>
      <trkpt lat="48.61374" lon="2.0153">
        <ele>121.4</ele>
        <time>2023-06-23T07:58:18Z</time>
      </trkpt>
      <trkpt lat="48.61364" lon="2.01533">
        <ele>120.9</ele>
        <time>2023-06-23T07:58:25Z</time>
      </trkpt>
      <trkpt lat="48.61355" lon="2.01534">
        <ele>120.6</ele>
        <time>2023-06-23T07:58:32Z</time>
      </trkpt>
      <trkpt lat="48.61346" lon="2.01534">
        <ele>120.2</ele>
        <time>2023-06-23T08:01:02Z</time>
      </trkpt>
      <trkpt lat="48.61336" lon="2.01533">
        <ele>119.9</ele>
        <time>2023-06-23T08:03:12Z</time>
      </trkpt>
      <trkpt lat="48.61327" lon="2.01531">
        <ele>119.9</ele>
        <time>2023-06-23T08:03:21Z</time>
      </trkpt>
      <trkpt lat="48.61318" lon="2.01529">
        <ele>120</ele>
        <time>2023-06-23T08:03:30Z</time>
      </trkpt>
      <trkpt lat="48.61309" lon="2.01528">
        <ele>120</ele>
        <time>2023-06-23T08:03:38Z</time>
      </trkpt>
      <trkpt lat="48.61299" lon="2.01527">
        <ele>120</ele>
        <time>2023-06-23T08:03:45Z</time>
      </trkpt>
      <trkpt lat="48.61289" lon="2.01526">
        <ele>120.1</ele>
        <time>2023-06-23T08:03:51Z</time>
      </trkpt>
      <trkpt lat="48.6128" lon="2.01522">
        <ele>120.2</ele>
        <time>2023-06-23T08:03:58Z</time>
      </trkpt>
      <trkpt lat="48.6127" lon="2.0152">
        <ele>120.2</ele>
        <time>2023-06-23T08:04:05Z</time>
      </trkpt>
      <trkpt lat="48.6126" lon="2.01516">
        <ele>120.1</ele>
        <time>2023-06-23T08:04:12Z</time>
      </trkpt>
      <trkpt lat="48.61251" lon="2.01511">
        <ele>120</ele>
        <time>2023-06-23T08:04:18Z</time>
      </trkpt>
      <trkpt lat="48.61242" lon="2.01506">
        <ele>119.7</ele>
        <time>2023-06-23T08:04:24Z</time>
      </trkpt>
      <trkpt lat="48.61234" lon="2.015">
        <ele>119.4</ele>
        <time>2023-06-23T08:04:30Z</time>
      </trkpt>
      <trkpt lat="48.61225" lon="2.01493">
        <ele>119.4</ele>
        <time>2023-06-23T08:04:37Z</time>
      </trkpt>
      <trkpt lat="48.61216" lon="2.01488">
        <ele>119.3</ele>
        <time>2023-06-23T08:04:43Z</time>
      </trkpt>
      <trkpt lat="48.61207" lon="2.01483">
        <ele>119.3</ele>
        <time>2023-06-23T08:04:49Z</time>
      </trkpt>
      <trkpt lat="48.61198" lon="2.01477">
        <ele>119.1</ele>
        <time>2023-06-23T08:04:55Z</time>
      </trkpt>
      <trkpt lat="48.61189" lon="2.01471">
        <ele>118.8</ele>
        <time>2023-06-23T08:05:02Z</time>
      </trkpt>
      <trkpt lat="48.61179" lon="2.01465">
        <ele>118.5</ele>
        <time>2023-06-23T08:05:12Z</time>
      </trkpt>
      <trkpt lat="48.6117" lon="2.01459">
        <ele>118.1</ele>
        <time>2023-06-23T08:05:19Z</time>
      </trkpt>
      <trkpt lat="48.6116" lon="2.01453">
        <ele>118</ele>
        <time>2023-06-23T08:05:26Z</time>
      </trkpt>
      <trkpt lat="48.61151" lon="2.01449">
        <ele>118</ele>
        <time>2023-06-23T08:05:32Z</time>
      </trkpt>
      <trkpt lat="48.61142" lon="2.01444">
        <ele>118</ele>
        <time>2023-06-23T08:05:38Z</time>
      </trkpt>
      <trkpt lat="48.61133" lon="2.0144">
        <ele>117.8</ele>
        <time>2023-06-23T08:05:45Z</time>
      </trkpt>
      <trkpt lat="48.61123" lon="2.01434">
        <ele>117.4</ele>
        <time>2023-06-23T08:05:52Z</time>
      </trkpt>
      <trkpt lat="48.61115" lon="2.01428">
        <ele>117.1</ele>
        <time>2023-06-23T08:05:58Z</time>
      </trkpt>
      <trkpt lat="48.61106" lon="2.0142">
        <ele>117</ele>
        <time>2023-06-23T08:06:05Z</time>
      </trkpt>
      <trkpt lat="48.61097" lon="2.01413">
        <ele>117</ele>
        <time>2023-06-23T08:06:12Z</time>
      </trkpt>
      <trkpt lat="48.61088" lon="2.01405">
        <ele>117</ele>
        <time>2023-06-23T08:06:19Z</time>
      </trkpt>
      <trkpt lat="48.6108" lon="2.01398">
        <ele>117</ele>
        <time>2023-06-23T08:06:25Z</time>
      </trkpt>
      <trkpt lat="48.61071" lon="2.01391">
        <ele>117</ele>
        <time>2023-06-23T08:06:32Z</time>
      </trkpt>
      <trkpt lat="48.61063" lon="2.01383">
        <ele>117.2</ele>
        <time>2023-06-23T08:06:39Z</time>
      </trkpt>
      <trkpt lat="48.61054" lon="2.01376">
        <ele>117.5</ele>
        <time>2023-06-23T08:06:46Z</time>
      </trkpt>
      <trkpt lat="48.61046" lon="2.01368">
        <ele>117.8</ele>
        <time>2023-06-23T08:06:52Z</time>
      </trkpt>
      <trkpt lat="48.61038" lon="2.01359">
        <ele>118</ele>
        <time>2023-06-23T08:06:59Z</time>
      </trkpt>
      <trkpt lat="48.6103" lon="2.0135">
        <ele>118</ele>
        <time>2023-06-23T08:07:06Z</time>
      </trkpt>
      <trkpt lat="48.61022" lon="2.01341">
        <ele>118.1</ele>
        <time>2023-06-23T08:07:13Z</time>
      </trkpt>
      <trkpt lat="48.61014" lon="2.01332">
        <ele>118.5</ele>
        <time>2023-06-23T08:07:20Z</time>
      </trkpt>
      <trkpt lat="48.61006" lon="2.01323">
        <ele>119.2</ele>
        <time>2023-06-23T08:07:27Z</time>
      </trkpt>
      <trkpt lat="48.60999" lon="2.01313">
        <ele>119.8</ele>
        <time>2023-06-23T08:07:34Z</time>
      </trkpt>
      <trkpt lat="48.60993" lon="2.01302">
        <ele>120.3</ele>
        <time>2023-06-23T08:07:41Z</time>
      </trkpt>
      <trkpt lat="48.60985" lon="2.01294">
        <ele>120.7</ele>
        <time>2023-06-23T08:07:48Z</time>
      </trkpt>
      <trkpt lat="48.60977" lon="2.01286">
        <ele>121.4</ele>
        <time>2023-06-23T08:07:55Z</time>
      </trkpt>
      <trkpt lat="48.60969" lon="2.01278">
        <ele>122</ele>
        <time>2023-06-23T08:08:02Z</time>
      </trkpt>
      <trkpt lat="48.60961" lon="2.01273">
        <ele>122.1</ele>
        <time>2023-06-23T08:08:09Z</time>
      </trkpt>
      <trkpt lat="48.60952" lon="2.01269">
        <ele>122.2</ele>
        <time>2023-06-23T08:08:20Z</time>
      </trkpt>
      <trkpt lat="48.60944" lon="2.01265">
        <ele>122.5</ele>
        <time>2023-06-23T08:08:29Z</time>
      </trkpt>
      <trkpt lat="48.60936" lon="2.01257">
        <ele>122.5</ele>
        <time>2023-06-23T08:08:37Z</time>
      </trkpt>
      <trkpt lat="48.60927" lon="2.0125">
        <ele>122.4</ele>
        <time>2023-06-23T08:08:45Z</time>
      </trkpt>
      <trkpt lat="48.60918" lon="2.01245">
        <ele>122</ele>
        <time>2023-06-23T08:08:52Z</time>
      </trkpt>
      <trkpt lat="48.60908" lon="2.0124">
        <ele>122</ele>
        <time>2023-06-23T08:09:00Z</time>
      </trkpt>
      <trkpt lat="48.60898" lon="2.01238">
        <ele>122</ele>
        <time>2023-06-23T08:09:06Z</time>
      </trkpt>
      <trkpt lat="48.6089" lon="2.0123">
        <ele>122</ele>
        <time>2023-06-23T08:09:12Z</time>
      </trkpt>
      <trkpt lat="48.60883" lon="2.01221">
        <ele>121.8</ele>
        <time>2023-06-23T08:09:24Z</time>
      </trkpt>
      <trkpt lat="48.60873" lon="2.01219">
        <ele>121.4</ele>
        <time>2023-06-23T08:09:29Z</time>
      </trkpt>
      <trkpt lat="48.60863" lon="2.01214">
        <ele>121.1</ele>
        <time>2023-06-23T08:09:36Z</time>
      </trkpt>
      <trkpt lat="48.60855" lon="2.01206">
        <ele>120.8</ele>
        <time>2023-06-23T08:09:43Z</time>
      </trkpt>
      <trkpt lat="48.60846" lon="2.01197">
        <ele>120.5</ele>
        <time>2023-06-23T08:09:50Z</time>
      </trkpt>
      <trkpt lat="48.60838" lon="2.01191">
        <ele>120.1</ele>
        <time>2023-06-23T08:09:57Z</time>
      </trkpt>
      <trkpt lat="48.60831" lon="2.01182">
        <ele>119.9</ele>
        <time>2023-06-23T08:10:03Z</time>
      </trkpt>
      <trkpt lat="48.60822" lon="2.01177">
        <ele>119.3</ele>
        <time>2023-06-23T08:10:10Z</time>
      </trkpt>
      <trkpt lat="48.60813" lon="2.01171">
        <ele>118.7</ele>
        <time>2023-06-23T08:10:17Z</time>
      </trkpt>
      <trkpt lat="48.60803" lon="2.01168">
        <ele>117.9</ele>
        <time>2023-06-23T08:10:25Z</time>
      </trkpt>
      <trkpt lat="48.60795" lon="2.01162">
        <ele>117.2</ele>
        <time>2023-06-23T08:10:31Z</time>
      </trkpt>
      <trkpt lat="48.60786" lon="2.01156">
        <ele>116.4</ele>
        <time>2023-06-23T08:10:37Z</time>
      </trkpt>
      <trkpt lat="48.60777" lon="2.01151">
        <ele>115.4</ele>
        <time>2023-06-23T08:10:43Z</time>
      </trkpt>
      <trkpt lat="48.60767" lon="2.01147">
        <ele>114.9</ele>
        <time>2023-06-23T08:10:49Z</time>
      </trkpt>
      <trkpt lat="48.60757" lon="2.01143">
        <ele>114.4</ele>
        <time>2023-06-23T08:10:55Z</time>
      </trkpt>
      <trkpt lat="48.60748" lon="2.0114">
        <ele>114.1</ele>
        <time>2023-06-23T08:11:01Z</time>
      </trkpt>
      <trkpt lat="48.60738" lon="2.01138">
        <ele>114</ele>
        <time>2023-06-23T08:11:07Z</time>
      </trkpt>
      <trkpt lat="48.60729" lon="2.01136">
        <ele>114</ele>
        <time>2023-06-23T08:11:13Z</time>
      </trkpt>
      <trkpt lat="48.6072" lon="2.01133">
        <ele>113.9</ele>
        <time>2023-06-23T08:11:19Z</time>
      </trkpt>
      <trkpt lat="48.60711" lon="2.01131">
        <ele>113.6</ele>
        <time>2023-06-23T08:11:25Z</time>
      </trkpt>
      <trkpt lat="48.60701" lon="2.01128">
        <ele>113.2</ele>
        <time>2023-06-23T08:11:32Z</time>
      </trkpt>
      <trkpt lat="48.6069" lon="2.01125">
        <ele>112.8</ele>
        <time>2023-06-23T08:11:39Z</time>
      </trkpt>
      <trkpt lat="48.60681" lon="2.01123">
        <ele>112.6</ele>
        <time>2023-06-23T08:11:46Z</time>
      </trkpt>
      <trkpt lat="48.60671" lon="2.01119">
        <ele>112.6</ele>
        <time>2023-06-23T08:11:53Z</time>
      </trkpt>
      <trkpt lat="48.60662" lon="2.01116">
        <ele>112.4</ele>
        <time>2023-06-23T08:12:00Z</time>
      </trkpt>
      <trkpt lat="48.60652" lon="2.01112">
        <ele>111.9</ele>
        <time>2023-06-23T08:12:07Z</time>
      </trkpt>
      <trkpt lat="48.60642" lon="2.01107">
        <ele>111.5</ele>
        <time>2023-06-23T08:12:14Z</time>
      </trkpt>
      <trkpt lat="48.60634" lon="2.01102">
        <ele>111.4</ele>
        <time>2023-06-23T08:12:21Z</time>
      </trkpt>
      <trkpt lat="48.60625" lon="2.01096">
        <ele>111.3</ele>
        <time>2023-06-23T08:12:28Z</time>
      </trkpt>
      <trkpt lat="48.60616" lon="2.0109">
        <ele>111</ele>
        <time>2023-06-23T08:12:35Z</time>
      </trkpt>
      <trkpt lat="48.60606" lon="2.01084">
        <ele>110.8</ele>
        <time>2023-06-23T08:12:42Z</time>
      </trkpt>
      <trkpt lat="48.60598" lon="2.01079">
        <ele>110.8</ele>
        <time>2023-06-23T08:12:49Z</time>
      </trkpt>
      <trkpt lat="48.60589" lon="2.01073">
        <ele>110.9</ele>
        <time>2023-06-23T08:12:56Z</time>
      </trkpt>
      <trkpt lat="48.6058" lon="2.01067">
        <ele>111</ele>
        <time>2023-06-23T08:13:03Z</time>
      </trkpt>
      <trkpt lat="48.6057" lon="2.01061">
        <ele>111.1</ele>
        <time>2023-06-23T08:13:10Z</time>
      </trkpt>
      <trkpt lat="48.60561" lon="2.01056">
        <ele>111.2</ele>
        <time>2023-06-23T08:13:17Z</time>
      </trkpt>
      <trkpt lat="48.60552" lon="2.01051">
        <ele>111.1</ele>
        <time>2023-06-23T08:13:24Z</time>
      </trkpt>
      <trkpt lat="48.60543" lon="2.01045">
        <ele>110.8</ele>
        <time>2023-06-23T08:13:31Z</time>
      </trkpt>
      <trkpt lat="48.60533" lon="2.0104">
        <ele>110.6</ele>
        <time>2023-06-23T08:13:38Z</time>
      </trkpt>
      <trkpt lat="48.60525" lon="2.01034">
        <ele>110.4</ele>
        <time>2023-06-23T08:13:45Z</time>
      </trkpt>
      <trkpt lat="48.60516" lon="2.01027">
        <ele>110.2</ele>
        <time>2023-06-23T08:13:52Z</time>
      </trkpt>
      <trkpt lat="48.60515" lon="2.01013">
        <ele>110.6</ele>
        <time>2023-06-23T08:14:31Z</time>
      </trkpt>
      <trkpt lat="48.60519" lon="2.01">
        <ele>111.3</ele>
        <time>2023-06-23T08:14:47Z</time>
      </trkpt>
      <trkpt lat="48.60526" lon="2.0099">
        <ele>112.2</ele>
        <time>2023-06-23T08:15:01Z</time>
      </trkpt>
      <trkpt lat="48.60527" lon="2.00977">
        <ele>112.8</ele>
        <time>2023-06-23T08:15:15Z</time>
      </trkpt>
      <trkpt lat="48.60535" lon="2.0097">
        <ele>113.5</ele>
        <time>2023-06-23T08:17:19Z</time>
      </trkpt>
      <trkpt lat="48.60534" lon="2.00956">
        <ele>113.5</ele>
        <time>2023-06-23T08:19:19Z</time>
      </trkpt>
      <trkpt lat="48.60542" lon="2.00948">
        <ele>114.1</ele>
        <time>2023-06-23T08:19:31Z</time>
      </trkpt>
      <trkpt lat="48.6055" lon="2.0094">
        <ele>114.6</ele>
        <time>2023-06-23T08:19:40Z</time>
      </trkpt>
      <trkpt lat="48.60557" lon="2.0093">
        <ele>115.1</ele>
        <time>2023-06-23T08:19:51Z</time>
      </trkpt>
      <trkpt lat="48.60564" lon="2.00921">
        <ele>115.6</ele>
        <time>2023-06-23T08:19:59Z</time>
      </trkpt>
      <trkpt lat="48.60571" lon="2.00911">
        <ele>116.1</ele>
        <time>2023-06-23T08:20:10Z</time>
      </trkpt>
      <trkpt lat="48.60573" lon="2.00897">
        <ele>116.2</ele>
        <time>2023-06-23T08:20:18Z</time>
      </trkpt>
      <trkpt lat="48.60582" lon="2.00891">
        <ele>116.9</ele>
        <time>2023-06-23T08:20:25Z</time>
      </trkpt>
      <trkpt lat="48.60589" lon="2.00881">
        <ele>117.5</ele>
        <time>2023-06-23T08:20:38Z</time>
      </trkpt>
      <trkpt lat="48.60596" lon="2.00873">
        <ele>118.1</ele>
        <time>2023-06-23T08:20:47Z</time>
      </trkpt>
      <trkpt lat="48.60604" lon="2.00867">
        <ele>118.7</ele>
        <time>2023-06-23T08:20:56Z</time>
      </trkpt>
      <trkpt lat="48.60611" lon="2.00857">
        <ele>119</ele>
        <time>2023-06-23T08:21:06Z</time>
      </trkpt>
      <trkpt lat="48.60619" lon="2.00849">
        <ele>119.8</ele>
        <time>2023-06-23T08:21:15Z</time>
      </trkpt>
      <trkpt lat="48.60627" lon="2.0084">
        <ele>120.2</ele>
        <time>2023-06-23T08:21:23Z</time>
      </trkpt>
      <trkpt lat="48.60631" lon="2.00828">
        <ele>120.6</ele>
        <time>2023-06-23T08:21:31Z</time>
      </trkpt>
      <trkpt lat="48.60639" lon="2.00818">
        <ele>121.6</ele>
        <time>2023-06-23T08:21:39Z</time>
      </trkpt>
      <trkpt lat="48.60644" lon="2.00807">
        <ele>122.3</ele>
        <time>2023-06-23T08:21:48Z</time>
      </trkpt>
      <trkpt lat="48.6065" lon="2.00796">
        <ele>122.9</ele>
        <time>2023-06-23T08:21:55Z</time>
      </trkpt>
      <trkpt lat="48.60657" lon="2.00786">
        <ele>123.8</ele>
        <time>2023-06-23T08:22:03Z</time>
      </trkpt>
      <trkpt lat="48.60666" lon="2.00779">
        <ele>124.9</ele>
        <time>2023-06-23T08:22:10Z</time>
      </trkpt>
      <trkpt lat="48.60673" lon="2.00768">
        <ele>125.7</ele>
        <time>2023-06-23T08:22:18Z</time>
      </trkpt>
      <trkpt lat="48.60682" lon="2.00765">
        <ele>126.9</ele>
        <time>2023-06-23T08:22:25Z</time>
      </trkpt>
      <trkpt lat="48.60689" lon="2.00756">
        <ele>128.1</ele>
        <time>2023-06-23T08:22:33Z</time>
      </trkpt>
      <trkpt lat="48.60697" lon="2.00748">
        <ele>129.3</ele>
        <time>2023-06-23T08:22:41Z</time>
      </trkpt>
      <trkpt lat="48.60702" lon="2.00736">
        <ele>130.3</ele>
        <time>2023-06-23T08:22:51Z</time>
      </trkpt>
      <trkpt lat="48.60707" lon="2.00725">
        <ele>131.3</ele>
        <time>2023-06-23T08:22:58Z</time>
      </trkpt>
      <trkpt lat="48.60715" lon="2.00717">
        <ele>132.4</ele>
        <time>2023-06-23T08:23:07Z</time>
      </trkpt>
      <trkpt lat="48.60724" lon="2.0071">
        <ele>133.5</ele>
        <time>2023-06-23T08:23:16Z</time>
      </trkpt>
      <trkpt lat="48.60731" lon="2.00701">
        <ele>134.4</ele>
        <time>2023-06-23T08:23:24Z</time>
      </trkpt>
      <trkpt lat="48.6074" lon="2.00693">
        <ele>135.3</ele>
        <time>2023-06-23T08:23:32Z</time>
      </trkpt>
      <trkpt lat="48.6074" lon="2.00679">
        <ele>136</ele>
        <time>2023-06-23T08:24:04Z</time>
      </trkpt>
      <trkpt lat="48.60735" lon="2.00668">
        <ele>135.8</ele>
        <time>2023-06-23T08:24:41Z</time>
      </trkpt>
      <trkpt lat="48.60743" lon="2.00663">
        <ele>137.1</ele>
        <time>2023-06-23T08:25:17Z</time>
      </trkpt>
      <trkpt lat="48.60752" lon="2.00661">
        <ele>138.3</ele>
        <time>2023-06-23T08:25:26Z</time>
      </trkpt>
      <trkpt lat="48.6076" lon="2.00652">
        <ele>139.3</ele>
        <time>2023-06-23T08:25:35Z</time>
      </trkpt>
      <trkpt lat="48.60763" lon="2.00639">
        <ele>140.4</ele>
        <time>2023-06-23T08:25:44Z</time>
      </trkpt>
      <trkpt lat="48.60765" lon="2.00625">
        <ele>141.7</ele>
        <time>2023-06-23T08:25:55Z</time>
      </trkpt>
      <trkpt lat="48.6077" lon="2.00612">
        <ele>143.1</ele>
        <time>2023-06-23T08:26:04Z</time>
      </trkpt>
      <trkpt lat="48.60771" lon="2.00598">
        <ele>144.4</ele>
        <time>2023-06-23T08:26:13Z</time>
      </trkpt>
      <trkpt lat="48.6077" lon="2.00583">
        <ele>145.7</ele>
        <time>2023-06-23T08:26:22Z</time>
      </trkpt>
      <trkpt lat="48.6077" lon="2.00569">
        <ele>146.9</ele>
        <time>2023-06-23T08:26:31Z</time>
      </trkpt>
      <trkpt lat="48.6077" lon="2.00555">
        <ele>148</ele>
        <time>2023-06-23T08:26:39Z</time>
      </trkpt>
      <trkpt lat="48.60769" lon="2.00541">
        <ele>148.7</ele>
        <time>2023-06-23T08:26:48Z</time>
      </trkpt>
      <trkpt lat="48.60771" lon="2.00526">
        <ele>149.3</ele>
        <time>2023-06-23T08:26:57Z</time>
      </trkpt>
      <trkpt lat="48.60771" lon="2.00512">
        <ele>149.8</ele>
        <time>2023-06-23T08:27:07Z</time>
      </trkpt>
      <trkpt lat="48.60775" lon="2.00498">
        <ele>150.2</ele>
        <time>2023-06-23T08:27:17Z</time>
      </trkpt>
      <trkpt lat="48.6078" lon="2.00486">
        <ele>150.2</ele>
        <time>2023-06-23T08:27:30Z</time>
      </trkpt>
      <trkpt lat="48.60786" lon="2.00474">
        <ele>150</ele>
        <time>2023-06-23T08:27:38Z</time>
      </trkpt>
      <trkpt lat="48.60793" lon="2.00465">
        <ele>149.7</ele>
        <time>2023-06-23T08:27:45Z</time>
      </trkpt>
      <trkpt lat="48.60801" lon="2.00458">
        <ele>149.4</ele>
        <time>2023-06-23T08:27:53Z</time>
      </trkpt>
      <trkpt lat="48.60811" lon="2.00454">
        <ele>149.1</ele>
        <time>2023-06-23T08:28:00Z</time>
      </trkpt>
      <trkpt lat="48.60821" lon="2.00449">
        <ele>149.1</ele>
        <time>2023-06-23T08:28:07Z</time>
      </trkpt>
      <trkpt lat="48.60828" lon="2.00441">
        <ele>149.4</ele>
        <time>2023-06-23T08:28:14Z</time>
      </trkpt>
      <trkpt lat="48.60837" lon="2.00438">
        <ele>149.6</ele>
        <time>2023-06-23T08:28:22Z</time>
      </trkpt>
      <trkpt lat="48.60847" lon="2.00437">
        <ele>149.9</ele>
        <time>2023-06-23T08:28:29Z</time>
      </trkpt>
      <trkpt lat="48.60856" lon="2.00433">
        <ele>150.3</ele>
        <time>2023-06-23T08:28:36Z</time>
      </trkpt>
      <trkpt lat="48.60865" lon="2.00429">
        <ele>150.7</ele>
        <time>2023-06-23T08:28:44Z</time>
      </trkpt>
      <trkpt lat="48.60875" lon="2.00426">
        <ele>151.2</ele>
        <time>2023-06-23T08:28:51Z</time>
      </trkpt>
      <trkpt lat="48.60885" lon="2.00423">
        <ele>151.6</ele>
        <time>2023-06-23T08:28:59Z</time>
      </trkpt>
      <trkpt lat="48.60894" lon="2.00419">
        <ele>151.9</ele>
        <time>2023-06-23T08:29:06Z</time>
      </trkpt>
      <trkpt lat="48.60903" lon="2.00417">
        <ele>152</ele>
        <time>2023-06-23T08:29:13Z</time>
      </trkpt>
      <trkpt lat="48.60912" lon="2.00413">
        <ele>152</ele>
        <time>2023-06-23T08:29:21Z</time>
      </trkpt>
      <trkpt lat="48.60922" lon="2.00411">
        <ele>152</ele>
        <time>2023-06-23T08:29:30Z</time>
      </trkpt>
      <trkpt lat="48.6093" lon="2.00402">
        <ele>152.3</ele>
        <time>2023-06-23T08:29:40Z</time>
      </trkpt>
      <trkpt lat="48.60939" lon="2.00401">
        <ele>152.5</ele>
        <time>2023-06-23T08:29:48Z</time>
      </trkpt>
      <trkpt lat="48.60948" lon="2.00397">
        <ele>152.7</ele>
        <time>2023-06-23T08:29:55Z</time>
      </trkpt>
      <trkpt lat="48.60956" lon="2.00392">
        <ele>152.9</ele>
        <time>2023-06-23T08:30:02Z</time>
      </trkpt>
      <trkpt lat="48.60965" lon="2.00386">
        <ele>153</ele>
        <time>2023-06-23T08:30:09Z</time>
      </trkpt>
      <trkpt lat="48.60975" lon="2.00381">
        <ele>152.9</ele>
        <time>2023-06-23T08:30:16Z</time>
      </trkpt>
      <trkpt lat="48.60984" lon="2.00376">
        <ele>152.8</ele>
        <time>2023-06-23T08:30:22Z</time>
      </trkpt>
      <trkpt lat="48.60994" lon="2.0037">
        <ele>152.7</ele>
        <time>2023-06-23T08:30:29Z</time>
      </trkpt>
      <trkpt lat="48.61003" lon="2.00364">
        <ele>152.8</ele>
        <time>2023-06-23T08:30:35Z</time>
      </trkpt>
      <trkpt lat="48.61012" lon="2.00358">
        <ele>152.6</ele>
        <time>2023-06-23T08:30:42Z</time>
      </trkpt>
      <trkpt lat="48.61021" lon="2.00355">
        <ele>152.2</ele>
        <time>2023-06-23T08:30:52Z</time>
      </trkpt>
      <trkpt lat="48.61031" lon="2.00354">
        <ele>152</ele>
        <time>2023-06-23T08:31:01Z</time>
      </trkpt>
      <trkpt lat="48.61038" lon="2.00346">
        <ele>152</ele>
        <time>2023-06-23T08:31:11Z</time>
      </trkpt>
      <trkpt lat="48.61046" lon="2.00339">
        <ele>152</ele>
        <time>2023-06-23T08:31:20Z</time>
      </trkpt>
      <trkpt lat="48.61055" lon="2.00334">
        <ele>152</ele>
        <time>2023-06-23T08:31:27Z</time>
      </trkpt>
      <trkpt lat="48.61064" lon="2.00328">
        <ele>152</ele>
        <time>2023-06-23T08:31:35Z</time>
      </trkpt>
      <trkpt lat="48.61072" lon="2.00322">
        <ele>152</ele>
        <time>2023-06-23T08:31:43Z</time>
      </trkpt>
      <trkpt lat="48.61081" lon="2.00319">
        <ele>152</ele>
        <time>2023-06-23T08:31:50Z</time>
      </trkpt>
      <trkpt lat="48.61091" lon="2.00313">
        <ele>152</ele>
        <time>2023-06-23T08:31:57Z</time>
      </trkpt>
      <trkpt lat="48.611" lon="2.0031">
        <ele>152</ele>
        <time>2023-06-23T08:32:04Z</time>
      </trkpt>
      <trkpt lat="48.61109" lon="2.00305">
        <ele>152</ele>
        <time>2023-06-23T08:32:08Z</time>
      </trkpt>
      <trkpt lat="48.61118" lon="2.00301">
        <ele>152.4</ele>
        <time>2023-06-23T08:32:15Z</time>
      </trkpt>
      <trkpt lat="48.61127" lon="2.00297">
        <ele>152.7</ele>
        <time>2023-06-23T08:32:24Z</time>
      </trkpt>
      <trkpt lat="48.61136" lon="2.00291">
        <ele>153</ele>
        <time>2023-06-23T08:32:33Z</time>
      </trkpt>
      <trkpt lat="48.61145" lon="2.00286">
        <ele>152.8</ele>
        <time>2023-06-23T08:32:40Z</time>
      </trkpt>
      <trkpt lat="48.61154" lon="2.00284">
        <ele>152.4</ele>
        <time>2023-06-23T08:32:48Z</time>
      </trkpt>
      <trkpt lat="48.61164" lon="2.00279">
        <ele>152.1</ele>
        <time>2023-06-23T08:32:56Z</time>
      </trkpt>
      <trkpt lat="48.61173" lon="2.00273">
        <ele>151.6</ele>
        <time>2023-06-23T08:33:02Z</time>
      </trkpt>
      <trkpt lat="48.61182" lon="2.00267">
        <ele>151.1</ele>
        <time>2023-06-23T08:33:10Z</time>
      </trkpt>
      <trkpt lat="48.6119" lon="2.00259">
        <ele>150.5</ele>
        <time>2023-06-23T08:33:18Z</time>
      </trkpt>
      <trkpt lat="48.61199" lon="2.00252">
        <ele>149.7</ele>
        <time>2023-06-23T08:33:26Z</time>
      </trkpt>
      <trkpt lat="48.61207" lon="2.00247">
        <ele>148.9</ele>
        <time>2023-06-23T08:33:34Z</time>
      </trkpt>
      <trkpt lat="48.61214" lon="2.00238">
        <ele>147.8</ele>
        <time>2023-06-23T08:33:43Z</time>
      </trkpt>
      <trkpt lat="48.61223" lon="2.0023">
        <ele>146.5</ele>
        <time>2023-06-23T08:33:52Z</time>
      </trkpt>
      <trkpt lat="48.61232" lon="2.00226">
        <ele>145.2</ele>
        <time>2023-06-23T08:33:59Z</time>
      </trkpt>
      <trkpt lat="48.61242" lon="2.00224">
        <ele>144.1</ele>
        <time>2023-06-23T08:34:07Z</time>
      </trkpt>
      <trkpt lat="48.61251" lon="2.00227">
        <ele>143.2</ele>
        <time>2023-06-23T08:34:16Z</time>
      </trkpt>
      <trkpt lat="48.6126" lon="2.00231">
        <ele>142.2</ele>
        <time>2023-06-23T08:34:25Z</time>
      </trkpt>
      <trkpt lat="48.61269" lon="2.00236">
        <ele>141.3</ele>
        <time>2023-06-23T08:34:33Z</time>
      </trkpt>
      <trkpt lat="48.61278" lon="2.00238">
        <ele>140.1</ele>
        <time>2023-06-23T08:34:42Z</time>
      </trkpt>
      <trkpt lat="48.61288" lon="2.00242">
        <ele>139.2</ele>
        <time>2023-06-23T08:34:50Z</time>
      </trkpt>
      <trkpt lat="48.61298" lon="2.00245">
        <ele>138.3</ele>
        <time>2023-06-23T08:34:58Z</time>
      </trkpt>
      <trkpt lat="48.61307" lon="2.00243">
        <ele>137.1</ele>
        <time>2023-06-23T08:35:06Z</time>
      </trkpt>
      <trkpt lat="48.61316" lon="2.00238">
        <ele>135.6</ele>
        <time>2023-06-23T08:35:15Z</time>
      </trkpt>
      <trkpt lat="48.61325" lon="2.00235">
        <ele>134.3</ele>
        <time>2023-06-23T08:35:23Z</time>
      </trkpt>
      <trkpt lat="48.61334" lon="2.0023">
        <ele>132.8</ele>
        <time>2023-06-23T08:35:30Z</time>
      </trkpt>
      <trkpt lat="48.61343" lon="2.00224">
        <ele>131.5</ele>
        <time>2023-06-23T08:35:38Z</time>
      </trkpt>
      <trkpt lat="48.6135" lon="2.00215">
        <ele>130.3</ele>
        <time>2023-06-23T08:35:47Z</time>
      </trkpt>
      <trkpt lat="48.61357" lon="2.00206">
        <ele>129.1</ele>
        <time>2023-06-23T08:35:56Z</time>
      </trkpt>
      <trkpt lat="48.61365" lon="2.00197">
        <ele>128.1</ele>
        <time>2023-06-23T08:36:05Z</time>
      </trkpt>
      <trkpt lat="48.61373" lon="2.00187">
        <ele>127.2</ele>
        <time>2023-06-23T08:36:12Z</time>
      </trkpt>
      <trkpt lat="48.6138" lon="2.0018">
        <ele>126.4</ele>
        <time>2023-06-23T08:36:28Z</time>
      </trkpt>
      <trkpt lat="48.61382" lon="2.00166">
        <ele>125.4</ele>
        <time>2023-06-23T08:37:22Z</time>
      </trkpt>
      <trkpt lat="48.6139" lon="2.00157">
        <ele>124.6</ele>
        <time>2023-06-23T08:37:30Z</time>
      </trkpt>
      <trkpt lat="48.61397" lon="2.00148">
        <ele>123.8</ele>
        <time>2023-06-23T08:37:38Z</time>
      </trkpt>
      <trkpt lat="48.61406" lon="2.00143">
        <ele>123</ele>
        <time>2023-06-23T08:37:49Z</time>
      </trkpt>
      <trkpt lat="48.61414" lon="2.00136">
        <ele>122.1</ele>
        <time>2023-06-23T08:37:58Z</time>
      </trkpt>
      <trkpt lat="48.61423" lon="2.00138">
        <ele>121.5</ele>
        <time>2023-06-23T08:38:07Z</time>
      </trkpt>
      <trkpt lat="48.61433" lon="2.00144">
        <ele>121.2</ele>
        <time>2023-06-23T08:38:15Z</time>
      </trkpt>
      <trkpt lat="48.61442" lon="2.00146">
        <ele>120.7</ele>
        <time>2023-06-23T08:38:24Z</time>
      </trkpt>
      <trkpt lat="48.61451" lon="2.00152">
        <ele>120.7</ele>
        <time>2023-06-23T08:38:33Z</time>
      </trkpt>
      <trkpt lat="48.61458" lon="2.00161">
        <ele>120.8</ele>
        <time>2023-06-23T08:38:41Z</time>
      </trkpt>
      <trkpt lat="48.61467" lon="2.0017">
        <ele>120.6</ele>
        <time>2023-06-23T08:38:48Z</time>
      </trkpt>
      <trkpt lat="48.61474" lon="2.00181">
        <ele>120.9</ele>
        <time>2023-06-23T08:38:55Z</time>
      </trkpt>
      <trkpt lat="48.61482" lon="2.00192">
        <ele>121.2</ele>
        <time>2023-06-23T08:39:02Z</time>
      </trkpt>
      <trkpt lat="48.61488" lon="2.00203">
        <ele>121.3</ele>
        <time>2023-06-23T08:39:09Z</time>
      </trkpt>
      <trkpt lat="48.61495" lon="2.00214">
        <ele>121.7</ele>
        <time>2023-06-23T08:39:16Z</time>
      </trkpt>
      <trkpt lat="48.615" lon="2.00226">
        <ele>122.1</ele>
        <time>2023-06-23T08:39:23Z</time>
      </trkpt>
      <trkpt lat="48.61505" lon="2.00238">
        <ele>122.4</ele>
        <time>2023-06-23T08:39:32Z</time>
      </trkpt>
      <trkpt lat="48.61513" lon="2.00248">
        <ele>122.5</ele>
        <time>2023-06-23T08:39:38Z</time>
      </trkpt>
      <trkpt lat="48.6152" lon="2.0026">
        <ele>122.9</ele>
        <time>2023-06-23T08:39:45Z</time>
      </trkpt>
      <trkpt lat="48.61526" lon="2.00271">
        <ele>123.5</ele>
        <time>2023-06-23T08:39:52Z</time>
      </trkpt>
      <trkpt lat="48.61532" lon="2.00284">
        <ele>123.7</ele>
        <time>2023-06-23T08:40:00Z</time>
      </trkpt>
      <trkpt lat="48.61537" lon="2.00295">
        <ele>123.5</ele>
        <time>2023-06-23T08:40:07Z</time>
      </trkpt>
      <trkpt lat="48.61543" lon="2.00306">
        <ele>123.5</ele>
        <time>2023-06-23T08:40:15Z</time>
      </trkpt>
      <trkpt lat="48.61549" lon="2.00317">
        <ele>123.3</ele>
        <time>2023-06-23T08:40:22Z</time>
      </trkpt>
      <trkpt lat="48.61555" lon="2.00328">
        <ele>123</ele>
        <time>2023-06-23T08:40:30Z</time>
      </trkpt>
      <trkpt lat="48.61562" lon="2.00338">
        <ele>122.5</ele>
        <time>2023-06-23T08:40:38Z</time>
      </trkpt>
      <trkpt lat="48.61568" lon="2.00349">
        <ele>122.1</ele>
        <time>2023-06-23T08:40:45Z</time>
      </trkpt>
      <trkpt lat="48.61573" lon="2.00361">
        <ele>121.8</ele>
        <time>2023-06-23T08:40:51Z</time>
      </trkpt>
      <trkpt lat="48.61579" lon="2.00372">
        <ele>121.3</ele>
        <time>2023-06-23T08:40:58Z</time>
      </trkpt>
      <trkpt lat="48.61585" lon="2.00383">
        <ele>120.9</ele>
        <time>2023-06-23T08:41:05Z</time>
      </trkpt>
      <trkpt lat="48.6159" lon="2.00396">
        <ele>121</ele>
        <time>2023-06-23T08:41:13Z</time>
      </trkpt>
      <trkpt lat="48.61595" lon="2.00409">
        <ele>121</ele>
        <time>2023-06-23T08:41:20Z</time>
      </trkpt>
      <trkpt lat="48.61601" lon="2.0042">
        <ele>120.8</ele>
        <time>2023-06-23T08:41:28Z</time>
      </trkpt>
      <trkpt lat="48.61607" lon="2.00431">
        <ele>120.8</ele>
        <time>2023-06-23T08:41:38Z</time>
      </trkpt>
      <trkpt lat="48.61614" lon="2.00444">
        <ele>120.9</ele>
        <time>2023-06-23T08:41:46Z</time>
      </trkpt>
      <trkpt lat="48.6162" lon="2.00454">
        <ele>120.9</ele>
        <time>2023-06-23T08:41:51Z</time>
      </trkpt>
      <trkpt lat="48.61626" lon="2.00464">
        <ele>120.8</ele>
        <time>2023-06-23T08:41:58Z</time>
      </trkpt>
      <trkpt lat="48.6163" lon="2.00478">
        <ele>120.8</ele>
        <time>2023-06-23T08:42:06Z</time>
      </trkpt>
      <trkpt lat="48.61636" lon="2.00489">
        <ele>120.7</ele>
        <time>2023-06-23T08:42:14Z</time>
      </trkpt>
      <trkpt lat="48.61643" lon="2.005">
        <ele>120.8</ele>
        <time>2023-06-23T08:42:21Z</time>
      </trkpt>
      <trkpt lat="48.6165" lon="2.00512">
        <ele>121</ele>
        <time>2023-06-23T08:42:28Z</time>
      </trkpt>
      <trkpt lat="48.61654" lon="2.00525">
        <ele>121.3</ele>
        <time>2023-06-23T08:42:36Z</time>
      </trkpt>
      <trkpt lat="48.61657" lon="2.00538">
        <ele>121.7</ele>
        <time>2023-06-23T08:42:46Z</time>
      </trkpt>
      <trkpt lat="48.61662" lon="2.00551">
        <ele>122</ele>
        <time>2023-06-23T08:42:53Z</time>
      </trkpt>
      <trkpt lat="48.61668" lon="2.00564">
        <ele>121.9</ele>
        <time>2023-06-23T08:43:00Z</time>
      </trkpt>
      <trkpt lat="48.61672" lon="2.00577">
        <ele>121.8</ele>
        <time>2023-06-23T08:43:07Z</time>
      </trkpt>
      <trkpt lat="48.61677" lon="2.00589">
        <ele>121.9</ele>
        <time>2023-06-23T08:43:13Z</time>
      </trkpt>
      <trkpt lat="48.6168" lon="2.00603">
        <ele>122.6</ele>
        <time>2023-06-23T08:43:21Z</time>
      </trkpt>
      <trkpt lat="48.61685" lon="2.00615">
        <ele>123</ele>
        <time>2023-06-23T08:43:28Z</time>
      </trkpt>
      <trkpt lat="48.61688" lon="2.00629">
        <ele>123</ele>
        <time>2023-06-23T08:43:35Z</time>
      </trkpt>
      <trkpt lat="48.61691" lon="2.00642">
        <ele>123.1</ele>
        <time>2023-06-23T08:43:42Z</time>
      </trkpt>
      <trkpt lat="48.61696" lon="2.00655">
        <ele>123.6</ele>
        <time>2023-06-23T08:43:50Z</time>
      </trkpt>
      <trkpt lat="48.61699" lon="2.00669">
        <ele>124</ele>
        <time>2023-06-23T08:44:01Z</time>
      </trkpt>
      <trkpt lat="48.617" lon="2.00684">
        <ele>124</ele>
        <time>2023-06-23T08:44:10Z</time>
      </trkpt>
      <trkpt lat="48.61704" lon="2.00698">
        <ele>124</ele>
        <time>2023-06-23T08:44:17Z</time>
      </trkpt>
      <trkpt lat="48.61708" lon="2.00712">
        <ele>124</ele>
        <time>2023-06-23T08:44:24Z</time>
      </trkpt>
      <trkpt lat="48.6171" lon="2.00726">
        <ele>124</ele>
        <time>2023-06-23T08:44:31Z</time>
      </trkpt>
      <trkpt lat="48.61713" lon="2.00739">
        <ele>124</ele>
        <time>2023-06-23T08:44:38Z</time>
      </trkpt>
      <trkpt lat="48.61715" lon="2.00753">
        <ele>124</ele>
        <time>2023-06-23T08:44:46Z</time>
      </trkpt>
      <trkpt lat="48.61717" lon="2.00767">
        <ele>124.1</ele>
        <time>2023-06-23T08:44:54Z</time>
      </trkpt>
      <trkpt lat="48.61719" lon="2.00781">
        <ele>124.1</ele>
        <time>2023-06-23T08:45:02Z</time>
      </trkpt>
      <trkpt lat="48.61718" lon="2.00766">
        <ele>124.1</ele>
        <time>2023-06-23T08:46:41Z</time>
      </trkpt>
      <trkpt lat="48.61715" lon="2.00753">
        <ele>124</ele>
        <time>2023-06-23T08:46:54Z</time>
      </trkpt>
      <trkpt lat="48.6171" lon="2.00739">
        <ele>124</ele>
        <time>2023-06-23T08:47:03Z</time>
      </trkpt>
      <trkpt lat="48.61705" lon="2.00726">
        <ele>124</ele>
        <time>2023-06-23T08:47:19Z</time>
      </trkpt>
      <trkpt lat="48.61702" lon="2.00713">
        <ele>124</ele>
        <time>2023-06-23T08:47:26Z</time>
      </trkpt>
      <trkpt lat="48.61699" lon="2.00699">
        <ele>124</ele>
        <time>2023-06-23T08:47:34Z</time>
      </trkpt>
      <trkpt lat="48.61696" lon="2.00685">
        <ele>124</ele>
        <time>2023-06-23T08:47:42Z</time>
      </trkpt>
      <trkpt lat="48.61693" lon="2.00671">
        <ele>124</ele>
        <time>2023-06-23T08:47:50Z</time>
      </trkpt>
      <trkpt lat="48.61691" lon="2.00656">
        <ele>123.6</ele>
        <time>2023-06-23T08:47:57Z</time>
      </trkpt>
      <trkpt lat="48.61687" lon="2.00642">
        <ele>123.1</ele>
        <time>2023-06-23T08:48:04Z</time>
      </trkpt>
      <trkpt lat="48.61683" lon="2.00629">
        <ele>123</ele>
        <time>2023-06-23T08:48:11Z</time>
      </trkpt>
      <trkpt lat="48.6168" lon="2.00616">
        <ele>123</ele>
        <time>2023-06-23T08:48:21Z</time>
      </trkpt>
      <trkpt lat="48.61675" lon="2.00603">
        <ele>122.6</ele>
        <time>2023-06-23T08:48:28Z</time>
      </trkpt>
      <trkpt lat="48.61671" lon="2.00589">
        <ele>122.1</ele>
        <time>2023-06-23T08:48:34Z</time>
      </trkpt>
      <trkpt lat="48.6167" lon="2.00575">
        <ele>121.9</ele>
        <time>2023-06-23T08:48:42Z</time>
      </trkpt>
      <trkpt lat="48.61665" lon="2.00561">
        <ele>122.1</ele>
        <time>2023-06-23T08:48:48Z</time>
      </trkpt>
      <trkpt lat="48.61658" lon="2.00551">
        <ele>122.2</ele>
        <time>2023-06-23T08:48:56Z</time>
      </trkpt>
      <trkpt lat="48.61653" lon="2.00538">
        <ele>121.9</ele>
        <time>2023-06-23T08:49:04Z</time>
      </trkpt>
      <trkpt lat="48.61649" lon="2.00526">
        <ele>121.6</ele>
        <time>2023-06-23T08:49:10Z</time>
      </trkpt>
      <trkpt lat="48.61644" lon="2.00514">
        <ele>121.3</ele>
        <time>2023-06-23T08:49:17Z</time>
      </trkpt>
      <trkpt lat="48.61638" lon="2.00504">
        <ele>121.2</ele>
        <time>2023-06-23T08:49:23Z</time>
      </trkpt>
      <trkpt lat="48.61632" lon="2.00492">
        <ele>121</ele>
        <time>2023-06-23T08:49:29Z</time>
      </trkpt>
      <trkpt lat="48.61625" lon="2.00481">
        <ele>121.2</ele>
        <time>2023-06-23T08:49:36Z</time>
      </trkpt>
      <trkpt lat="48.6162" lon="2.00467">
        <ele>121.3</ele>
        <time>2023-06-23T08:49:44Z</time>
      </trkpt>
      <trkpt lat="48.61615" lon="2.00455">
        <ele>121.2</ele>
        <time>2023-06-23T08:49:51Z</time>
      </trkpt>
      <trkpt lat="48.61609" lon="2.00444">
        <ele>121.1</ele>
        <time>2023-06-23T08:49:57Z</time>
      </trkpt>
      <trkpt lat="48.61603" lon="2.00431">
        <ele>121</ele>
        <time>2023-06-23T08:50:05Z</time>
      </trkpt>
      <trkpt lat="48.61596" lon="2.00421">
        <ele>121.1</ele>
        <time>2023-06-23T08:50:12Z</time>
      </trkpt>
      <trkpt lat="48.61592" lon="2.00408">
        <ele>121.2</ele>
        <time>2023-06-23T08:50:22Z</time>
      </trkpt>
      <trkpt lat="48.61586" lon="2.00396">
        <ele>121.1</ele>
        <time>2023-06-23T08:50:29Z</time>
      </trkpt>
      <trkpt lat="48.6158" lon="2.00385">
        <ele>121.3</ele>
        <time>2023-06-23T08:50:39Z</time>
      </trkpt>
      <trkpt lat="48.61574" lon="2.00374">
        <ele>121.7</ele>
        <time>2023-06-23T08:50:47Z</time>
      </trkpt>
      <trkpt lat="48.61568" lon="2.00363">
        <ele>122.1</ele>
        <time>2023-06-23T08:50:55Z</time>
      </trkpt>
      <trkpt lat="48.61572" lon="2.0035">
        <ele>121.8</ele>
        <time>2023-06-23T08:51:10Z</time>
      </trkpt>
      <trkpt lat="48.61577" lon="2.00338">
        <ele>121.4</ele>
        <time>2023-06-23T08:51:17Z</time>
      </trkpt>
      <trkpt lat="48.6158" lon="2.00323">
        <ele>121.2</ele>
        <time>2023-06-23T08:51:24Z</time>
      </trkpt>
      <trkpt lat="48.61584" lon="2.0031">
        <ele>121</ele>
        <time>2023-06-23T08:51:30Z</time>
      </trkpt>
      <trkpt lat="48.61584" lon="2.00295">
        <ele>120.9</ele>
        <time>2023-06-23T08:51:38Z</time>
      </trkpt>
      <trkpt lat="48.6159" lon="2.00284">
        <ele>120.5</ele>
        <time>2023-06-23T08:51:49Z</time>
      </trkpt>
      <trkpt lat="48.61588" lon="2.0027">
        <ele>120.4</ele>
        <time>2023-06-23T08:51:58Z</time>
      </trkpt>
      <trkpt lat="48.61588" lon="2.00255">
        <ele>120</ele>
        <time>2023-06-23T08:52:06Z</time>
      </trkpt>
      <trkpt lat="48.61594" lon="2.00246">
        <ele>119.6</ele>
        <time>2023-06-23T08:52:13Z</time>
      </trkpt>
      <trkpt lat="48.61598" lon="2.00232">
        <ele>119.5</ele>
        <time>2023-06-23T08:52:27Z</time>
      </trkpt>
      <trkpt lat="48.61593" lon="2.00243">
        <ele>119.7</ele>
        <time>2023-06-23T08:52:54Z</time>
      </trkpt>
      <trkpt lat="48.61594" lon="2.00257">
        <ele>119.7</ele>
        <time>2023-06-23T08:53:01Z</time>
      </trkpt>
      <trkpt lat="48.61597" lon="2.0027">
        <ele>119.9</ele>
        <time>2023-06-23T08:53:12Z</time>
      </trkpt>
      <trkpt lat="48.61593" lon="2.00256">
        <ele>119.8</ele>
        <time>2023-06-23T08:53:38Z</time>
      </trkpt>
      <trkpt lat="48.6159" lon="2.00242">
        <ele>119.7</ele>
        <time>2023-06-23T08:53:46Z</time>
      </trkpt>
      <trkpt lat="48.61597" lon="2.00232">
        <ele>119.5</ele>
        <time>2023-06-23T08:53:53Z</time>
      </trkpt>
      <trkpt lat="48.61598" lon="2.00219">
        <ele>119.4</ele>
        <time>2023-06-23T08:54:00Z</time>
      </trkpt>
      <trkpt lat="48.61605" lon="2.00208">
        <ele>119.1</ele>
        <time>2023-06-23T08:54:08Z</time>
      </trkpt>
      <trkpt lat="48.61611" lon="2.00196">
        <ele>119</ele>
        <time>2023-06-23T08:54:15Z</time>
      </trkpt>
      <trkpt lat="48.61616" lon="2.00184">
        <ele>118.5</ele>
        <time>2023-06-23T08:54:23Z</time>
      </trkpt>
      <trkpt lat="48.61619" lon="2.00169">
        <ele>118.1</ele>
        <time>2023-06-23T08:54:36Z</time>
      </trkpt>
      <trkpt lat="48.61622" lon="2.00156">
        <ele>118</ele>
        <time>2023-06-23T08:54:42Z</time>
      </trkpt>
      <trkpt lat="48.61626" lon="2.00141">
        <ele>118</ele>
        <time>2023-06-23T08:54:49Z</time>
      </trkpt>
      <trkpt lat="48.61631" lon="2.00128">
        <ele>118</ele>
        <time>2023-06-23T08:54:56Z</time>
      </trkpt>
      <trkpt lat="48.61637" lon="2.00117">
        <ele>118</ele>
        <time>2023-06-23T08:55:03Z</time>
      </trkpt>
      <trkpt lat="48.61643" lon="2.00105">
        <ele>118</ele>
        <time>2023-06-23T08:55:11Z</time>
      </trkpt>
      <trkpt lat="48.6165" lon="2.00093">
        <ele>118</ele>
        <time>2023-06-23T08:55:19Z</time>
      </trkpt>
      <trkpt lat="48.61655" lon="2.00082">
        <ele>118</ele>
        <time>2023-06-23T08:55:26Z</time>
      </trkpt>
      <trkpt lat="48.61663" lon="2.00075">
        <ele>118</ele>
        <time>2023-06-23T08:55:40Z</time>
      </trkpt>
      <trkpt lat="48.61671" lon="2.00068">
        <ele>117.8</ele>
        <time>2023-06-23T08:55:53Z</time>
      </trkpt>
      <trkpt lat="48.61663" lon="2.00075">
        <ele>118</ele>
        <time>2023-06-23T08:56:21Z</time>
      </trkpt>
      <trkpt lat="48.61664" lon="2.00061">
        <ele>117.9</ele>
        <time>2023-06-23T08:56:30Z</time>
      </trkpt>
      <trkpt lat="48.61671" lon="2.00051">
        <ele>117.7</ele>
        <time>2023-06-23T08:56:38Z</time>
      </trkpt>
      <trkpt lat="48.61679" lon="2.00042">
        <ele>117.1</ele>
        <time>2023-06-23T08:56:51Z</time>
      </trkpt>
      <trkpt lat="48.61687" lon="2.00034">
        <ele>116.5</ele>
        <time>2023-06-23T08:57:14Z</time>
      </trkpt>
      <trkpt lat="48.61696" lon="2.00033">
        <ele>116.1</ele>
        <time>2023-06-23T08:57:24Z</time>
      </trkpt>
      <trkpt lat="48.61706" lon="2.00031">
        <ele>115.7</ele>
        <time>2023-06-23T08:57:33Z</time>
      </trkpt>
      <trkpt lat="48.61715" lon="2.00035">
        <ele>115.5</ele>
        <time>2023-06-23T08:57:42Z</time>
      </trkpt>
      <trkpt lat="48.6172" lon="2.00046">
        <ele>115.7</ele>
        <time>2023-06-23T08:57:53Z</time>
      </trkpt>
      <trkpt lat="48.61725" lon="2.00057">
        <ele>116</ele>
        <time>2023-06-23T08:58:17Z</time>
      </trkpt>
      <trkpt lat="48.61726" lon="2.00072">
        <ele>116</ele>
        <time>2023-06-23T08:58:30Z</time>
      </trkpt>
      <trkpt lat="48.61728" lon="2.00086">
        <ele>116.1</ele>
        <time>2023-06-23T08:58:40Z</time>
      </trkpt>
      <trkpt lat="48.61731" lon="2.001">
        <ele>116.4</ele>
        <time>2023-06-23T08:58:48Z</time>
      </trkpt>
      <trkpt lat="48.61732" lon="2.00115">
        <ele>116.6</ele>
        <time>2023-06-23T08:58:56Z</time>
      </trkpt>
      <trkpt lat="48.61736" lon="2.00129">
        <ele>116.5</ele>
        <time>2023-06-23T08:59:03Z</time>
      </trkpt>
      <trkpt lat="48.6174" lon="2.00142">
        <ele>116.4</ele>
        <time>2023-06-23T08:59:10Z</time>
      </trkpt>
      <trkpt lat="48.61745" lon="2.00156">
        <ele>116.2</ele>
        <time>2023-06-23T08:59:17Z</time>
      </trkpt>
      <trkpt lat="48.61752" lon="2.00165">
        <ele>115.9</ele>
        <time>2023-06-23T08:59:24Z</time>
      </trkpt>
      <trkpt lat="48.61761" lon="2.00173">
        <ele>115.6</ele>
        <time>2023-06-23T08:59:33Z</time>
      </trkpt>
      <trkpt lat="48.6177" lon="2.00179">
        <ele>115.3</ele>
        <time>2023-06-23T08:59:39Z</time>
      </trkpt>
      <trkpt lat="48.61777" lon="2.00188">
        <ele>115</ele>
        <time>2023-06-23T08:59:45Z</time>
      </trkpt>
      <trkpt lat="48.61785" lon="2.00195">
        <ele>114.7</ele>
        <time>2023-06-23T08:59:54Z</time>
      </trkpt>
      <trkpt lat="48.61793" lon="2.00204">
        <ele>114.4</ele>
        <time>2023-06-23T09:00:01Z</time>
      </trkpt>
      <trkpt lat="48.61801" lon="2.00213">
        <ele>114.2</ele>
        <time>2023-06-23T09:00:06Z</time>
      </trkpt>
      <trkpt lat="48.61809" lon="2.00219">
        <ele>113.9</ele>
        <time>2023-06-23T09:00:12Z</time>
      </trkpt>
      <trkpt lat="48.61818" lon="2.00227">
        <ele>113.6</ele>
        <time>2023-06-23T09:00:19Z</time>
      </trkpt>
      <trkpt lat="48.61826" lon="2.00231">
        <ele>113.3</ele>
        <time>2023-06-23T09:00:28Z</time>
      </trkpt>
      <trkpt lat="48.61836" lon="2.0023">
        <ele>112.9</ele>
        <time>2023-06-23T09:00:36Z</time>
      </trkpt>
      <trkpt lat="48.61845" lon="2.0023">
        <ele>112.6</ele>
        <time>2023-06-23T09:00:43Z</time>
      </trkpt>
      <trkpt lat="48.61855" lon="2.00233">
        <ele>112.2</ele>
        <time>2023-06-23T09:00:54Z</time>
      </trkpt>
      <trkpt lat="48.61864" lon="2.00234">
        <ele>111.9</ele>
        <time>2023-06-23T09:01:04Z</time>
      </trkpt>
      <trkpt lat="48.61873" lon="2.00233">
        <ele>111.6</ele>
        <time>2023-06-23T09:01:15Z</time>
      </trkpt>
      <trkpt lat="48.61884" lon="2.00232">
        <ele>111.2</ele>
        <time>2023-06-23T09:01:24Z</time>
      </trkpt>
      <trkpt lat="48.61894" lon="2.00229">
        <ele>110.8</ele>
        <time>2023-06-23T09:01:31Z</time>
      </trkpt>
      <trkpt lat="48.61903" lon="2.00227">
        <ele>110.5</ele>
        <time>2023-06-23T09:01:37Z</time>
      </trkpt>
      <trkpt lat="48.61912" lon="2.00228">
        <ele>110.2</ele>
        <time>2023-06-23T09:01:44Z</time>
      </trkpt>
      <trkpt lat="48.61922" lon="2.00228">
        <ele>109.8</ele>
        <time>2023-06-23T09:01:53Z</time>
      </trkpt>
      <trkpt lat="48.61932" lon="2.00229">
        <ele>109.5</ele>
        <time>2023-06-23T09:02:02Z</time>
      </trkpt>
      <trkpt lat="48.61941" lon="2.00225">
        <ele>109.1</ele>
        <time>2023-06-23T09:02:08Z</time>
      </trkpt>
      <trkpt lat="48.61951" lon="2.00223">
        <ele>108.8</ele>
        <time>2023-06-23T09:02:15Z</time>
      </trkpt>
      <trkpt lat="48.61961" lon="2.00222">
        <ele>108.4</ele>
        <time>2023-06-23T09:02:23Z</time>
      </trkpt>
      <trkpt lat="48.61971" lon="2.00223">
        <ele>108</ele>
        <time>2023-06-23T09:02:31Z</time>
      </trkpt>
      <trkpt lat="48.61981" lon="2.00223">
        <ele>108</ele>
        <time>2023-06-23T09:02:37Z</time>
      </trkpt>
      <trkpt lat="48.61991" lon="2.00221">
        <ele>108</ele>
        <time>2023-06-23T09:02:45Z</time>
      </trkpt>
      <trkpt lat="48.62001" lon="2.00221">
        <ele>108</ele>
        <time>2023-06-23T09:02:52Z</time>
      </trkpt>
      <trkpt lat="48.6201" lon="2.0022">
        <ele>108</ele>
        <time>2023-06-23T09:02:59Z</time>
      </trkpt>
      <trkpt lat="48.62019" lon="2.00223">
        <ele>108</ele>
        <time>2023-06-23T09:03:07Z</time>
      </trkpt>
      <trkpt lat="48.62029" lon="2.00223">
        <ele>108</ele>
        <time>2023-06-23T09:03:14Z</time>
      </trkpt>
      <trkpt lat="48.62038" lon="2.00223">
        <ele>108</ele>
        <time>2023-06-23T09:03:20Z</time>
      </trkpt>
      <trkpt lat="48.62048" lon="2.00222">
        <ele>108</ele>
        <time>2023-06-23T09:03:27Z</time>
      </trkpt>
      <trkpt lat="48.62059" lon="2.00221">
        <ele>108.1</ele>
        <time>2023-06-23T09:03:34Z</time>
      </trkpt>
      <trkpt lat="48.62069" lon="2.00222">
        <ele>108.5</ele>
        <time>2023-06-23T09:03:40Z</time>
      </trkpt>
      <trkpt lat="48.62077" lon="2.00226">
        <ele>108.8</ele>
        <time>2023-06-23T09:03:46Z</time>
      </trkpt>
      <trkpt lat="48.62088" lon="2.00227">
        <ele>109.2</ele>
        <time>2023-06-23T09:03:53Z</time>
      </trkpt>
      <trkpt lat="48.62098" lon="2.00225">
        <ele>109.5</ele>
        <time>2023-06-23T09:04:00Z</time>
      </trkpt>
      <trkpt lat="48.62107" lon="2.00222">
        <ele>109.8</ele>
        <time>2023-06-23T09:04:07Z</time>
      </trkpt>
      <trkpt lat="48.62118" lon="2.00222">
        <ele>110.5</ele>
        <time>2023-06-23T09:04:15Z</time>
      </trkpt>
      <trkpt lat="48.62127" lon="2.0022">
        <ele>111.2</ele>
        <time>2023-06-23T09:04:24Z</time>
      </trkpt>
      <trkpt lat="48.62136" lon="2.00218">
        <ele>111.8</ele>
        <time>2023-06-23T09:04:49Z</time>
      </trkpt>
      <trkpt lat="48.62145" lon="2.00221">
        <ele>112.4</ele>
        <time>2023-06-23T09:05:01Z</time>
      </trkpt>
      <trkpt lat="48.62154" lon="2.00222">
        <ele>113.1</ele>
        <time>2023-06-23T09:06:24Z</time>
      </trkpt>
      <trkpt lat="48.62164" lon="2.0022">
        <ele>113.8</ele>
        <time>2023-06-23T09:06:32Z</time>
      </trkpt>
      <trkpt lat="48.62172" lon="2.00212">
        <ele>114.3</ele>
        <time>2023-06-23T09:06:41Z</time>
      </trkpt>
      <trkpt lat="48.62181" lon="2.00215">
        <ele>114.7</ele>
        <time>2023-06-23T09:06:49Z</time>
      </trkpt>
      <trkpt lat="48.62187" lon="2.00205">
        <ele>115.2</ele>
        <time>2023-06-23T09:07:02Z</time>
      </trkpt>
      <trkpt lat="48.62188" lon="2.00191">
        <ele>115.6</ele>
        <time>2023-06-23T09:07:10Z</time>
      </trkpt>
      <trkpt lat="48.62187" lon="2.00176">
        <ele>115.4</ele>
        <time>2023-06-23T09:07:19Z</time>
      </trkpt>
      <trkpt lat="48.62186" lon="2.00161">
        <ele>115.6</ele>
        <time>2023-06-23T09:07:28Z</time>
      </trkpt>
      <trkpt lat="48.62187" lon="2.00147">
        <ele>115.9</ele>
        <time>2023-06-23T09:07:35Z</time>
      </trkpt>
      <trkpt lat="48.62188" lon="2.00134">
        <ele>116.3</ele>
        <time>2023-06-23T09:07:42Z</time>
      </trkpt>
      <trkpt lat="48.6219" lon="2.00118">
        <ele>116.5</ele>
        <time>2023-06-23T09:07:53Z</time>
      </trkpt>
      <trkpt lat="48.62192" lon="2.00105">
        <ele>116.7</ele>
        <time>2023-06-23T09:08:00Z</time>
      </trkpt>
      <trkpt lat="48.62193" lon="2.00089">
        <ele>116.9</ele>
        <time>2023-06-23T09:08:08Z</time>
      </trkpt>
      <trkpt lat="48.62195" lon="2.00075">
        <ele>117</ele>
        <time>2023-06-23T09:08:15Z</time>
      </trkpt>
      <trkpt lat="48.62196" lon="2.00061">
        <ele>117.1</ele>
        <time>2023-06-23T09:08:22Z</time>
      </trkpt>
      <trkpt lat="48.62197" lon="2.00046">
        <ele>117.2</ele>
        <time>2023-06-23T09:08:30Z</time>
      </trkpt>
      <trkpt lat="48.62196" lon="2.00032">
        <ele>117.1</ele>
        <time>2023-06-23T09:08:38Z</time>
      </trkpt>
      <trkpt lat="48.62197" lon="2.00019">
        <ele>117.2</ele>
        <time>2023-06-23T09:08:47Z</time>
      </trkpt>
      <trkpt lat="48.62201" lon="2.00004">
        <ele>117.5</ele>
        <time>2023-06-23T09:08:55Z</time>
      </trkpt>
      <trkpt lat="48.62204" lon="1.99989">
        <ele>117.7</ele>
        <time>2023-06-23T09:09:02Z</time>
      </trkpt>
      <trkpt lat="48.62207" lon="1.99976">
        <ele>117.9</ele>
        <time>2023-06-23T09:09:08Z</time>
      </trkpt>
      <trkpt lat="48.6221" lon="1.99962">
        <ele>118.3</ele>
        <time>2023-06-23T09:09:16Z</time>
      </trkpt>
      <trkpt lat="48.62214" lon="1.9995">
        <ele>118.6</ele>
        <time>2023-06-23T09:09:23Z</time>
      </trkpt>
      <trkpt lat="48.62216" lon="1.99937">
        <ele>118.8</ele>
        <time>2023-06-23T09:09:29Z</time>
      </trkpt>
      <trkpt lat="48.62219" lon="1.99922">
        <ele>118.9</ele>
        <time>2023-06-23T09:09:36Z</time>
      </trkpt>
      <trkpt lat="48.62221" lon="1.99908">
        <ele>118.7</ele>
        <time>2023-06-23T09:09:42Z</time>
      </trkpt>
      <trkpt lat="48.62223" lon="1.99893">
        <ele>118.2</ele>
        <time>2023-06-23T09:09:49Z</time>
      </trkpt>
      <trkpt lat="48.6222" lon="1.99878">
        <ele>117.6</ele>
        <time>2023-06-23T09:09:56Z</time>
      </trkpt>
      <trkpt lat="48.62218" lon="1.99864">
        <ele>117.1</ele>
        <time>2023-06-23T09:10:04Z</time>
      </trkpt>
      <trkpt lat="48.62217" lon="1.99851">
        <ele>116.6</ele>
        <time>2023-06-23T09:10:11Z</time>
      </trkpt>
      <trkpt lat="48.62215" lon="1.99837">
        <ele>115.9</ele>
        <time>2023-06-23T09:10:18Z</time>
      </trkpt>
      <trkpt lat="48.62211" lon="1.99824">
        <ele>115.5</ele>
        <time>2023-06-23T09:10:26Z</time>
      </trkpt>
      <trkpt lat="48.62208" lon="1.9981">
        <ele>115</ele>
        <time>2023-06-23T09:10:34Z</time>
      </trkpt>
      <trkpt lat="48.62204" lon="1.99797">
        <ele>114.4</ele>
        <time>2023-06-23T09:10:41Z</time>
      </trkpt>
      <trkpt lat="48.62204" lon="1.99783">
        <ele>113.9</ele>
        <time>2023-06-23T09:10:52Z</time>
      </trkpt>
      <trkpt lat="48.62199" lon="1.99771">
        <ele>113.2</ele>
        <time>2023-06-23T09:11:00Z</time>
      </trkpt>
      <trkpt lat="48.62206" lon="1.99761">
        <ele>113.3</ele>
        <time>2023-06-23T09:11:09Z</time>
      </trkpt>
      <trkpt lat="48.62213" lon="1.99752">
        <ele>113.1</ele>
        <time>2023-06-23T09:11:18Z</time>
      </trkpt>
      <trkpt lat="48.62219" lon="1.99739">
        <ele>112.7</ele>
        <time>2023-06-23T09:11:26Z</time>
      </trkpt>
      <trkpt lat="48.62227" lon="1.99732">
        <ele>112.5</ele>
        <time>2023-06-23T09:11:33Z</time>
      </trkpt>
      <trkpt lat="48.62236" lon="1.99725">
        <ele>112.2</ele>
        <time>2023-06-23T09:11:40Z</time>
      </trkpt>
      <trkpt lat="48.62244" lon="1.99717">
        <ele>111.7</ele>
        <time>2023-06-23T09:11:47Z</time>
      </trkpt>
      <trkpt lat="48.62252" lon="1.99707">
        <ele>111</ele>
        <time>2023-06-23T09:11:55Z</time>
      </trkpt>
      <trkpt lat="48.6226" lon="1.99698">
        <ele>110.7</ele>
        <time>2023-06-23T09:12:02Z</time>
      </trkpt>
      <trkpt lat="48.62269" lon="1.99692">
        <ele>110.5</ele>
        <time>2023-06-23T09:12:09Z</time>
      </trkpt>
      <trkpt lat="48.62278" lon="1.99686">
        <ele>110.1</ele>
        <time>2023-06-23T09:12:16Z</time>
      </trkpt>
      <trkpt lat="48.62286" lon="1.9968">
        <ele>109.7</ele>
        <time>2023-06-23T09:12:23Z</time>
      </trkpt>
      <trkpt lat="48.62295" lon="1.99673">
        <ele>109.3</ele>
        <time>2023-06-23T09:12:30Z</time>
      </trkpt>
      <trkpt lat="48.62304" lon="1.99666">
        <ele>108.9</ele>
        <time>2023-06-23T09:12:37Z</time>
      </trkpt>
      <trkpt lat="48.62313" lon="1.9966">
        <ele>108.5</ele>
        <time>2023-06-23T09:12:45Z</time>
      </trkpt>
      <trkpt lat="48.62322" lon="1.99655">
        <ele>108.2</ele>
        <time>2023-06-23T09:12:52Z</time>
      </trkpt>
      <trkpt lat="48.62331" lon="1.99649">
        <ele>107.8</ele>
        <time>2023-06-23T09:13:00Z</time>
      </trkpt>
      <trkpt lat="48.62339" lon="1.99643">
        <ele>107.2</ele>
        <time>2023-06-23T09:13:10Z</time>
      </trkpt>
      <trkpt lat="48.62344" lon="1.99631">
        <ele>106.9</ele>
        <time>2023-06-23T09:14:21Z</time>
      </trkpt>
      <trkpt lat="48.62351" lon="1.99619">
        <ele>106.5</ele>
        <time>2023-06-23T09:14:28Z</time>
      </trkpt>
      <trkpt lat="48.62356" lon="1.99606">
        <ele>106.3</ele>
        <time>2023-06-23T09:14:35Z</time>
      </trkpt>
      <trkpt lat="48.62361" lon="1.99592">
        <ele>106.7</ele>
        <time>2023-06-23T09:14:42Z</time>
      </trkpt>
      <trkpt lat="48.62366" lon="1.99579">
        <ele>107</ele>
        <time>2023-06-23T09:14:52Z</time>
      </trkpt>
      <trkpt lat="48.62372" lon="1.99568">
        <ele>107</ele>
        <time>2023-06-23T09:14:59Z</time>
      </trkpt>
      <trkpt lat="48.6238" lon="1.99557">
        <ele>107</ele>
        <time>2023-06-23T09:15:07Z</time>
      </trkpt>
      <trkpt lat="48.62387" lon="1.99548">
        <ele>107</ele>
        <time>2023-06-23T09:15:17Z</time>
      </trkpt>
      <trkpt lat="48.62391" lon="1.99535">
        <ele>107.1</ele>
        <time>2023-06-23T09:15:25Z</time>
      </trkpt>
      <trkpt lat="48.62401" lon="1.99532">
        <ele>107.4</ele>
        <time>2023-06-23T09:15:33Z</time>
      </trkpt>
      <trkpt lat="48.62411" lon="1.9953">
        <ele>107.8</ele>
        <time>2023-06-23T09:15:40Z</time>
      </trkpt>
      <trkpt lat="48.62421" lon="1.9953">
        <ele>108.3</ele>
        <time>2023-06-23T09:15:47Z</time>
      </trkpt>
      <trkpt lat="48.62431" lon="1.99531">
        <ele>109</ele>
        <time>2023-06-23T09:15:54Z</time>
      </trkpt>
      <trkpt lat="48.62441" lon="1.99533">
        <ele>109.6</ele>
        <time>2023-06-23T09:16:01Z</time>
      </trkpt>
      <trkpt lat="48.6245" lon="1.99536">
        <ele>109.9</ele>
        <time>2023-06-23T09:16:08Z</time>
      </trkpt>
      <trkpt lat="48.62459" lon="1.99541">
        <ele>110</ele>
        <time>2023-06-23T09:16:15Z</time>
      </trkpt>
      <trkpt lat="48.62469" lon="1.99543">
        <ele>110.3</ele>
        <time>2023-06-23T09:16:22Z</time>
      </trkpt>
      <trkpt lat="48.62478" lon="1.99545">
        <ele>110.6</ele>
        <time>2023-06-23T09:16:29Z</time>
      </trkpt>
      <trkpt lat="48.62487" lon="1.99546">
        <ele>111</ele>
        <time>2023-06-23T09:16:36Z</time>
      </trkpt>
      <trkpt lat="48.62496" lon="1.99548">
        <ele>111.5</ele>
        <time>2023-06-23T09:16:44Z</time>
      </trkpt>
      <trkpt lat="48.62506" lon="1.9955">
        <ele>111.8</ele>
        <time>2023-06-23T09:16:52Z</time>
      </trkpt>
      <trkpt lat="48.62516" lon="1.99549">
        <ele>111.8</ele>
        <time>2023-06-23T09:17:00Z</time>
      </trkpt>
      <trkpt lat="48.62526" lon="1.99549">
        <ele>111.8</ele>
        <time>2023-06-23T09:17:08Z</time>
      </trkpt>
      <trkpt lat="48.62535" lon="1.99548">
        <ele>111.9</ele>
        <time>2023-06-23T09:17:15Z</time>
      </trkpt>
      <trkpt lat="48.62545" lon="1.99547">
        <ele>112.1</ele>
        <time>2023-06-23T09:17:22Z</time>
      </trkpt>
      <trkpt lat="48.62554" lon="1.99544">
        <ele>112.1</ele>
        <time>2023-06-23T09:17:29Z</time>
      </trkpt>
      <trkpt lat="48.62563" lon="1.99538">
        <ele>112</ele>
        <time>2023-06-23T09:17:37Z</time>
      </trkpt>
      <trkpt lat="48.62572" lon="1.9954">
        <ele>112.5</ele>
        <time>2023-06-23T09:17:44Z</time>
      </trkpt>
      <trkpt lat="48.62581" lon="1.99542">
        <ele>113</ele>
        <time>2023-06-23T09:17:51Z</time>
      </trkpt>
      <trkpt lat="48.6259" lon="1.99542">
        <ele>113.4</ele>
        <time>2023-06-23T09:17:59Z</time>
      </trkpt>
      <trkpt lat="48.62599" lon="1.9954">
        <ele>113.7</ele>
        <time>2023-06-23T09:18:07Z</time>
      </trkpt>
      <trkpt lat="48.62609" lon="1.99539">
        <ele>114.1</ele>
        <time>2023-06-23T09:18:15Z</time>
      </trkpt>
      <trkpt lat="48.62618" lon="1.99539">
        <ele>114.7</ele>
        <time>2023-06-23T09:18:23Z</time>
      </trkpt>
      <trkpt lat="48.62628" lon="1.99539">
        <ele>115.4</ele>
        <time>2023-06-23T09:18:31Z</time>
      </trkpt>
      <trkpt lat="48.62637" lon="1.9954">
        <ele>116.2</ele>
        <time>2023-06-23T09:18:38Z</time>
      </trkpt>
      <trkpt lat="48.62647" lon="1.99538">
        <ele>115.9</ele>
        <time>2023-06-23T09:18:45Z</time>
      </trkpt>
      <trkpt lat="48.62656" lon="1.99534">
        <ele>115.2</ele>
        <time>2023-06-23T09:18:51Z</time>
      </trkpt>
      <trkpt lat="48.62666" lon="1.99532">
        <ele>114.6</ele>
        <time>2023-06-23T09:18:58Z</time>
      </trkpt>
      <trkpt lat="48.62675" lon="1.99527">
        <ele>114.2</ele>
        <time>2023-06-23T09:19:05Z</time>
      </trkpt>
      <trkpt lat="48.62684" lon="1.99525">
        <ele>114.2</ele>
        <time>2023-06-23T09:19:11Z</time>
      </trkpt>
      <trkpt lat="48.62694" lon="1.99522">
        <ele>114.2</ele>
        <time>2023-06-23T09:19:18Z</time>
      </trkpt>
      <trkpt lat="48.62703" lon="1.99526">
        <ele>115</ele>
        <time>2023-06-23T09:19:24Z</time>
      </trkpt>
      <trkpt lat="48.62713" lon="1.99529">
        <ele>115.9</ele>
        <time>2023-06-23T09:19:32Z</time>
      </trkpt>
      <trkpt lat="48.62722" lon="1.99531">
        <ele>116.6</ele>
        <time>2023-06-23T09:19:39Z</time>
      </trkpt>
      <trkpt lat="48.62732" lon="1.99535">
        <ele>118.1</ele>
        <time>2023-06-23T09:19:46Z</time>
      </trkpt>
      <trkpt lat="48.62741" lon="1.99535">
        <ele>119</ele>
        <time>2023-06-23T09:19:53Z</time>
      </trkpt>
      <trkpt lat="48.62751" lon="1.99534">
        <ele>119.7</ele>
        <time>2023-06-23T09:20:01Z</time>
      </trkpt>
      <trkpt lat="48.6276" lon="1.99537">
        <ele>120.2</ele>
        <time>2023-06-23T09:20:09Z</time>
      </trkpt>
      <trkpt lat="48.62771" lon="1.99538">
        <ele>120.6</ele>
        <time>2023-06-23T09:20:18Z</time>
      </trkpt>
      <trkpt lat="48.6278" lon="1.99537">
        <ele>120.5</ele>
        <time>2023-06-23T09:20:25Z</time>
      </trkpt>
      <trkpt lat="48.6279" lon="1.99542">
        <ele>120.6</ele>
        <time>2023-06-23T09:20:33Z</time>
      </trkpt>
      <trkpt lat="48.62799" lon="1.99545">
        <ele>120.5</ele>
        <time>2023-06-23T09:20:40Z</time>
      </trkpt>
      <trkpt lat="48.62809" lon="1.99548">
        <ele>120.3</ele>
        <time>2023-06-23T09:20:48Z</time>
      </trkpt>
      <trkpt lat="48.62819" lon="1.99549">
        <ele>119.7</ele>
        <time>2023-06-23T09:21:02Z</time>
      </trkpt>
      <trkpt lat="48.62829" lon="1.99549">
        <ele>119.1</ele>
        <time>2023-06-23T09:21:09Z</time>
      </trkpt>
      <trkpt lat="48.62838" lon="1.9955">
        <ele>118.4</ele>
        <time>2023-06-23T09:21:18Z</time>
      </trkpt>
      <trkpt lat="48.62847" lon="1.99547">
        <ele>117.7</ele>
        <time>2023-06-23T09:21:25Z</time>
      </trkpt>
      <trkpt lat="48.62856" lon="1.99547">
        <ele>117</ele>
        <time>2023-06-23T09:21:32Z</time>
      </trkpt>
      <trkpt lat="48.62866" lon="1.99547">
        <ele>116.4</ele>
        <time>2023-06-23T09:21:39Z</time>
      </trkpt>
      <trkpt lat="48.62875" lon="1.99549">
        <ele>115.7</ele>
        <time>2023-06-23T09:21:46Z</time>
      </trkpt>
      <trkpt lat="48.62886" lon="1.99552">
        <ele>115.1</ele>
        <time>2023-06-23T09:21:53Z</time>
      </trkpt>
      <trkpt lat="48.62895" lon="1.99556">
        <ele>115</ele>
        <time>2023-06-23T09:21:59Z</time>
      </trkpt>
      <trkpt lat="48.62905" lon="1.99558">
        <ele>115</ele>
        <time>2023-06-23T09:22:06Z</time>
      </trkpt>
      <trkpt lat="48.62914" lon="1.99562">
        <ele>115</ele>
        <time>2023-06-23T09:22:14Z</time>
      </trkpt>
      <trkpt lat="48.62923" lon="1.99564">
        <ele>115.3</ele>
        <time>2023-06-23T09:22:22Z</time>
      </trkpt>
      <trkpt lat="48.62932" lon="1.9956">
        <ele>115.6</ele>
        <time>2023-06-23T09:22:30Z</time>
      </trkpt>
      <trkpt lat="48.62941" lon="1.99554">
        <ele>115.8</ele>
        <time>2023-06-23T09:22:41Z</time>
      </trkpt>
      <trkpt lat="48.62949" lon="1.99547">
        <ele>116.3</ele>
        <time>2023-06-23T09:22:51Z</time>
      </trkpt>
      <trkpt lat="48.62953" lon="1.99534">
        <ele>116.2</ele>
        <time>2023-06-23T09:22:59Z</time>
      </trkpt>
      <trkpt lat="48.6296" lon="1.99522">
        <ele>116.2</ele>
        <time>2023-06-23T09:23:07Z</time>
      </trkpt>
      <trkpt lat="48.62967" lon="1.99511">
        <ele>116.2</ele>
        <time>2023-06-23T09:23:14Z</time>
      </trkpt>
      <trkpt lat="48.62973" lon="1.995">
        <ele>116.1</ele>
        <time>2023-06-23T09:23:22Z</time>
      </trkpt>
      <trkpt lat="48.62979" lon="1.99488">
        <ele>116.2</ele>
        <time>2023-06-23T09:23:31Z</time>
      </trkpt>
      <trkpt lat="48.62986" lon="1.99477">
        <ele>116.3</ele>
        <time>2023-06-23T09:23:39Z</time>
      </trkpt>
      <trkpt lat="48.62992" lon="1.99466">
        <ele>116.2</ele>
        <time>2023-06-23T09:23:49Z</time>
      </trkpt>
      <trkpt lat="48.62999" lon="1.99455">
        <ele>116.3</ele>
        <time>2023-06-23T09:24:03Z</time>
      </trkpt>
      <trkpt lat="48.63006" lon="1.99444">
        <ele>116.4</ele>
        <time>2023-06-23T09:24:10Z</time>
      </trkpt>
      <trkpt lat="48.63012" lon="1.99432">
        <ele>116.7</ele>
        <time>2023-06-23T09:24:18Z</time>
      </trkpt>
      <trkpt lat="48.63019" lon="1.99424">
        <ele>116.9</ele>
        <time>2023-06-23T09:24:25Z</time>
      </trkpt>
      <trkpt lat="48.63026" lon="1.99413">
        <ele>116.8</ele>
        <time>2023-06-23T09:24:32Z</time>
      </trkpt>
      <trkpt lat="48.63032" lon="1.99401">
        <ele>116.7</ele>
        <time>2023-06-23T09:24:39Z</time>
      </trkpt>
      <trkpt lat="48.63038" lon="1.99389">
        <ele>116.7</ele>
        <time>2023-06-23T09:24:46Z</time>
      </trkpt>
      <trkpt lat="48.63044" lon="1.99378">
        <ele>117.1</ele>
        <time>2023-06-23T09:24:53Z</time>
      </trkpt>
      <trkpt lat="48.63047" lon="1.99364">
        <ele>117.4</ele>
        <time>2023-06-23T09:25:01Z</time>
      </trkpt>
      <trkpt lat="48.63051" lon="1.9935">
        <ele>117.7</ele>
        <time>2023-06-23T09:25:09Z</time>
      </trkpt>
      <trkpt lat="48.63055" lon="1.99337">
        <ele>118</ele>
        <time>2023-06-23T09:25:16Z</time>
      </trkpt>
      <trkpt lat="48.63059" lon="1.99324">
        <ele>118.3</ele>
        <time>2023-06-23T09:25:42Z</time>
      </trkpt>
      <trkpt lat="48.63062" lon="1.99311">
        <ele>118.5</ele>
        <time>2023-06-23T09:25:59Z</time>
      </trkpt>
      <trkpt lat="48.63064" lon="1.99297">
        <ele>118.6</ele>
        <time>2023-06-23T09:26:05Z</time>
      </trkpt>
      <trkpt lat="48.63068" lon="1.99285">
        <ele>118.9</ele>
        <time>2023-06-23T09:26:12Z</time>
      </trkpt>
      <trkpt lat="48.63072" lon="1.99271">
        <ele>118.9</ele>
        <time>2023-06-23T09:26:19Z</time>
      </trkpt>
      <trkpt lat="48.63076" lon="1.99257">
        <ele>118.7</ele>
        <time>2023-06-23T09:26:31Z</time>
      </trkpt>
      <trkpt lat="48.6308" lon="1.99245">
        <ele>118.6</ele>
        <time>2023-06-23T09:26:40Z</time>
      </trkpt>
      <trkpt lat="48.63082" lon="1.9923">
        <ele>118.2</ele>
        <time>2023-06-23T09:26:49Z</time>
      </trkpt>
      <trkpt lat="48.63086" lon="1.99218">
        <ele>118</ele>
        <time>2023-06-23T09:26:57Z</time>
      </trkpt>
      <trkpt lat="48.63089" lon="1.99203">
        <ele>117.6</ele>
        <time>2023-06-23T09:27:06Z</time>
      </trkpt>
      <trkpt lat="48.63092" lon="1.99189">
        <ele>117.1</ele>
        <time>2023-06-23T09:27:14Z</time>
      </trkpt>
      <trkpt lat="48.63097" lon="1.99176">
        <ele>116.8</ele>
        <time>2023-06-23T09:27:21Z</time>
      </trkpt>
      <trkpt lat="48.63102" lon="1.99165">
        <ele>116.6</ele>
        <time>2023-06-23T09:27:27Z</time>
      </trkpt>
      <trkpt lat="48.63108" lon="1.99154">
        <ele>116.4</ele>
        <time>2023-06-23T09:27:33Z</time>
      </trkpt>
      <trkpt lat="48.63113" lon="1.99141">
        <ele>116.1</ele>
        <time>2023-06-23T09:27:40Z</time>
      </trkpt>
      <trkpt lat="48.63118" lon="1.9913">
        <ele>115.9</ele>
        <time>2023-06-23T09:27:46Z</time>
      </trkpt>
      <trkpt lat="48.63125" lon="1.9912">
        <ele>115.8</ele>
        <time>2023-06-23T09:27:54Z</time>
      </trkpt>
      <trkpt lat="48.6313" lon="1.99108">
        <ele>115.5</ele>
        <time>2023-06-23T09:28:01Z</time>
      </trkpt>
      <trkpt lat="48.63134" lon="1.99094">
        <ele>114.7</ele>
        <time>2023-06-23T09:28:08Z</time>
      </trkpt>
      <trkpt lat="48.63142" lon="1.99086">
        <ele>114.3</ele>
        <time>2023-06-23T09:28:18Z</time>
      </trkpt>
      <trkpt lat="48.63151" lon="1.99092">
        <ele>115.1</ele>
        <time>2023-06-23T09:28:26Z</time>
      </trkpt>
      <trkpt lat="48.63158" lon="1.99101">
        <ele>115.9</ele>
        <time>2023-06-23T09:28:34Z</time>
      </trkpt>
      <trkpt lat="48.63167" lon="1.99109">
        <ele>116.8</ele>
        <time>2023-06-23T09:28:44Z</time>
      </trkpt>
      <trkpt lat="48.63176" lon="1.99115">
        <ele>117.5</ele>
        <time>2023-06-23T09:28:52Z</time>
      </trkpt>
      <trkpt lat="48.63184" lon="1.99123">
        <ele>118.1</ele>
        <time>2023-06-23T09:29:13Z</time>
      </trkpt>
      <trkpt lat="48.63193" lon="1.99129">
        <ele>118.6</ele>
        <time>2023-06-23T09:29:21Z</time>
      </trkpt>
      <trkpt lat="48.63202" lon="1.99134">
        <ele>119.1</ele>
        <time>2023-06-23T09:29:29Z</time>
      </trkpt>
      <trkpt lat="48.63211" lon="1.99136">
        <ele>119.5</ele>
        <time>2023-06-23T09:29:38Z</time>
      </trkpt>
      <trkpt lat="48.6322" lon="1.99143">
        <ele>120.1</ele>
        <time>2023-06-23T09:29:47Z</time>
      </trkpt>
      <trkpt lat="48.63227" lon="1.99151">
        <ele>120.5</ele>
        <time>2023-06-23T09:29:54Z</time>
      </trkpt>
      <trkpt lat="48.63235" lon="1.9916">
        <ele>121.1</ele>
        <time>2023-06-23T09:30:01Z</time>
      </trkpt>
      <trkpt lat="48.63243" lon="1.99167">
        <ele>121.7</ele>
        <time>2023-06-23T09:30:08Z</time>
      </trkpt>
      <trkpt lat="48.63251" lon="1.99177">
        <ele>122.7</ele>
        <time>2023-06-23T09:30:16Z</time>
      </trkpt>
      <trkpt lat="48.63258" lon="1.99187">
        <ele>123.6</ele>
        <time>2023-06-23T09:30:24Z</time>
      </trkpt>
      <trkpt lat="48.63263" lon="1.99198">
        <ele>124.3</ele>
        <time>2023-06-23T09:30:33Z</time>
      </trkpt>
      <trkpt lat="48.63271" lon="1.99208">
        <ele>125</ele>
        <time>2023-06-23T09:30:41Z</time>
      </trkpt>
      <trkpt lat="48.6328" lon="1.99215">
        <ele>125.7</ele>
        <time>2023-06-23T09:30:48Z</time>
      </trkpt>
      <trkpt lat="48.63289" lon="1.99212">
        <ele>126.5</ele>
        <time>2023-06-23T09:30:58Z</time>
      </trkpt>
      <trkpt lat="48.63296" lon="1.99203">
        <ele>126.6</ele>
        <time>2023-06-23T09:31:07Z</time>
      </trkpt>
      <trkpt lat="48.63303" lon="1.99194">
        <ele>126.6</ele>
        <time>2023-06-23T09:31:14Z</time>
      </trkpt>
      <trkpt lat="48.6331" lon="1.99184">
        <ele>126.2</ele>
        <time>2023-06-23T09:31:21Z</time>
      </trkpt>
      <trkpt lat="48.63318" lon="1.99175">
        <ele>125.8</ele>
        <time>2023-06-23T09:31:28Z</time>
      </trkpt>
      <trkpt lat="48.63324" lon="1.99164">
        <ele>125.3</ele>
        <time>2023-06-23T09:31:34Z</time>
      </trkpt>
      <trkpt lat="48.63329" lon="1.99151">
        <ele>125.1</ele>
        <time>2023-06-23T09:31:41Z</time>
      </trkpt>
      <trkpt lat="48.63335" lon="1.9914">
        <ele>125.3</ele>
        <time>2023-06-23T09:31:48Z</time>
      </trkpt>
      <trkpt lat="48.6334" lon="1.99127">
        <ele>126</ele>
        <time>2023-06-23T09:31:55Z</time>
      </trkpt>
      <trkpt lat="48.63347" lon="1.99118">
        <ele>127</ele>
        <time>2023-06-23T09:32:01Z</time>
      </trkpt>
      <trkpt lat="48.63354" lon="1.99109">
        <ele>128.1</ele>
        <time>2023-06-23T09:32:07Z</time>
      </trkpt>
      <trkpt lat="48.6336" lon="1.99097">
        <ele>129.3</ele>
        <time>2023-06-23T09:32:14Z</time>
      </trkpt>
      <trkpt lat="48.63366" lon="1.99085">
        <ele>130.9</ele>
        <time>2023-06-23T09:32:22Z</time>
      </trkpt>
      <trkpt lat="48.63372" lon="1.99073">
        <ele>132.5</ele>
        <time>2023-06-23T09:32:28Z</time>
      </trkpt>
      <trkpt lat="48.63376" lon="1.99059">
        <ele>134</ele>
        <time>2023-06-23T09:32:35Z</time>
      </trkpt>
      <trkpt lat="48.63381" lon="1.99045">
        <ele>135.9</ele>
        <time>2023-06-23T09:32:44Z</time>
      </trkpt>
      <trkpt lat="48.63386" lon="1.99034">
        <ele>137.9</ele>
        <time>2023-06-23T09:32:52Z</time>
      </trkpt>
      <trkpt lat="48.63392" lon="1.99023">
        <ele>139.4</ele>
        <time>2023-06-23T09:33:01Z</time>
      </trkpt>
      <trkpt lat="48.63397" lon="1.9901">
        <ele>139.7</ele>
        <time>2023-06-23T09:33:11Z</time>
      </trkpt>
      <trkpt lat="48.63401" lon="1.98997">
        <ele>139.6</ele>
        <time>2023-06-23T09:33:29Z</time>
      </trkpt>
      <trkpt lat="48.63404" lon="1.98984">
        <ele>138.9</ele>
        <time>2023-06-23T09:34:36Z</time>
      </trkpt>
      <trkpt lat="48.63406" lon="1.9897">
        <ele>138.1</ele>
        <time>2023-06-23T09:34:44Z</time>
      </trkpt>
      <trkpt lat="48.63407" lon="1.98957">
        <ele>137.4</ele>
        <time>2023-06-23T09:34:56Z</time>
      </trkpt>
      <trkpt lat="48.63406" lon="1.98943">
        <ele>136.5</ele>
        <time>2023-06-23T09:35:05Z</time>
      </trkpt>
      <trkpt lat="48.63408" lon="1.98929">
        <ele>135.4</ele>
        <time>2023-06-23T09:35:13Z</time>
      </trkpt>
      <trkpt lat="48.63409" lon="1.98913">
        <ele>133.8</ele>
        <time>2023-06-23T09:35:21Z</time>
      </trkpt>
      <trkpt lat="48.63404" lon="1.989">
        <ele>132.3</ele>
        <time>2023-06-23T09:35:28Z</time>
      </trkpt>
      <trkpt lat="48.63397" lon="1.9889">
        <ele>131.1</ele>
        <time>2023-06-23T09:35:36Z</time>
      </trkpt>
      <trkpt lat="48.6339" lon="1.9888">
        <ele>129.7</ele>
        <time>2023-06-23T09:35:45Z</time>
      </trkpt>
      <trkpt lat="48.63394" lon="1.98868">
        <ele>127.9</ele>
        <time>2023-06-23T09:36:00Z</time>
      </trkpt>
      <trkpt lat="48.63389" lon="1.98855">
        <ele>126.1</ele>
        <time>2023-06-23T09:36:11Z</time>
      </trkpt>
      <trkpt lat="48.63384" lon="1.98843">
        <ele>124.4</ele>
        <time>2023-06-23T09:36:25Z</time>
      </trkpt>
      <trkpt lat="48.6339" lon="1.98832">
        <ele>122.9</ele>
        <time>2023-06-23T09:36:41Z</time>
      </trkpt>
      <trkpt lat="48.63399" lon="1.98828">
        <ele>122.9</ele>
        <time>2023-06-23T09:37:11Z</time>
      </trkpt>
      <trkpt lat="48.63408" lon="1.98827">
        <ele>123.1</ele>
        <time>2023-06-23T09:37:45Z</time>
      </trkpt>
      <trkpt lat="48.63418" lon="1.98828">
        <ele>123.7</ele>
        <time>2023-06-23T09:37:54Z</time>
      </trkpt>
      <trkpt lat="48.63427" lon="1.98832">
        <ele>124.7</ele>
        <time>2023-06-23T09:38:04Z</time>
      </trkpt>
      <trkpt lat="48.63436" lon="1.98836">
        <ele>125.6</ele>
        <time>2023-06-23T09:38:12Z</time>
      </trkpt>
      <trkpt lat="48.63445" lon="1.98841">
        <ele>126.6</ele>
        <time>2023-06-23T09:38:19Z</time>
      </trkpt>
      <trkpt lat="48.63454" lon="1.98843">
        <ele>127.3</ele>
        <time>2023-06-23T09:38:33Z</time>
      </trkpt>
      <trkpt lat="48.63463" lon="1.9885">
        <ele>128.1</ele>
        <time>2023-06-23T09:38:41Z</time>
      </trkpt>
      <trkpt lat="48.6347" lon="1.98859">
        <ele>128.8</ele>
        <time>2023-06-23T09:38:48Z</time>
      </trkpt>
      <trkpt lat="48.63478" lon="1.98864">
        <ele>129.7</ele>
        <time>2023-06-23T09:38:56Z</time>
      </trkpt>
      <trkpt lat="48.63487" lon="1.98869">
        <ele>130.8</ele>
        <time>2023-06-23T09:39:04Z</time>
      </trkpt>
      <trkpt lat="48.63496" lon="1.98874">
        <ele>131.8</ele>
        <time>2023-06-23T09:39:10Z</time>
      </trkpt>
      <trkpt lat="48.63505" lon="1.98881">
        <ele>133</ele>
        <time>2023-06-23T09:39:18Z</time>
      </trkpt>
      <trkpt lat="48.63515" lon="1.98884">
        <ele>134</ele>
        <time>2023-06-23T09:39:27Z</time>
      </trkpt>
      <trkpt lat="48.63525" lon="1.98884">
        <ele>134.9</ele>
        <time>2023-06-23T09:39:37Z</time>
      </trkpt>
      <trkpt lat="48.63535" lon="1.98883">
        <ele>136.6</ele>
        <time>2023-06-23T09:39:45Z</time>
      </trkpt>
      <trkpt lat="48.63544" lon="1.98883">
        <ele>138.3</ele>
        <time>2023-06-23T09:39:52Z</time>
      </trkpt>
      <trkpt lat="48.63554" lon="1.98881">
        <ele>140.3</ele>
        <time>2023-06-23T09:40:01Z</time>
      </trkpt>
      <trkpt lat="48.63563" lon="1.98876">
        <ele>142.4</ele>
        <time>2023-06-23T09:40:09Z</time>
      </trkpt>
      <trkpt lat="48.63572" lon="1.98874">
        <ele>144.4</ele>
        <time>2023-06-23T09:40:18Z</time>
      </trkpt>
      <trkpt lat="48.63581" lon="1.98876">
        <ele>146</ele>
        <time>2023-06-23T09:40:26Z</time>
      </trkpt>
      <trkpt lat="48.6359" lon="1.98878">
        <ele>147.4</ele>
        <time>2023-06-23T09:40:35Z</time>
      </trkpt>
      <trkpt lat="48.63599" lon="1.9888">
        <ele>148.9</ele>
        <time>2023-06-23T09:40:49Z</time>
      </trkpt>
      <trkpt lat="48.63609" lon="1.98882">
        <ele>150.4</ele>
        <time>2023-06-23T09:41:01Z</time>
      </trkpt>
      <trkpt lat="48.63619" lon="1.98882">
        <ele>152</ele>
        <time>2023-06-23T09:41:10Z</time>
      </trkpt>
      <trkpt lat="48.63628" lon="1.98884">
        <ele>153.4</ele>
        <time>2023-06-23T09:41:20Z</time>
      </trkpt>
      <trkpt lat="48.63638" lon="1.98887">
        <ele>154.8</ele>
        <time>2023-06-23T09:41:32Z</time>
      </trkpt>
      <trkpt lat="48.63647" lon="1.98888">
        <ele>156.4</ele>
        <time>2023-06-23T09:41:41Z</time>
      </trkpt>
      <trkpt lat="48.63656" lon="1.98887">
        <ele>158.1</ele>
        <time>2023-06-23T09:41:52Z</time>
      </trkpt>
      <trkpt lat="48.63665" lon="1.98884">
        <ele>159.5</ele>
        <time>2023-06-23T09:42:02Z</time>
      </trkpt>
      <trkpt lat="48.63674" lon="1.98884">
        <ele>160.9</ele>
        <time>2023-06-23T09:42:11Z</time>
      </trkpt>
      <trkpt lat="48.63684" lon="1.98882">
        <ele>162.3</ele>
        <time>2023-06-23T09:42:20Z</time>
      </trkpt>
      <trkpt lat="48.63693" lon="1.98878">
        <ele>163.5</ele>
        <time>2023-06-23T09:42:29Z</time>
      </trkpt>
      <trkpt lat="48.63703" lon="1.98875">
        <ele>164.7</ele>
        <time>2023-06-23T09:42:38Z</time>
      </trkpt>
      <trkpt lat="48.63712" lon="1.98872">
        <ele>165.9</ele>
        <time>2023-06-23T09:42:50Z</time>
      </trkpt>
      <trkpt lat="48.63721" lon="1.98868">
        <ele>167.1</ele>
        <time>2023-06-23T09:43:00Z</time>
      </trkpt>
      <trkpt lat="48.6373" lon="1.98864">
        <ele>168.2</ele>
        <time>2023-06-23T09:43:08Z</time>
      </trkpt>
      <trkpt lat="48.63739" lon="1.98859">
        <ele>169.3</ele>
        <time>2023-06-23T09:43:17Z</time>
      </trkpt>
      <trkpt lat="48.63749" lon="1.98856">
        <ele>170.6</ele>
        <time>2023-06-23T09:43:27Z</time>
      </trkpt>
      <trkpt lat="48.63758" lon="1.98854">
        <ele>171.3</ele>
        <time>2023-06-23T09:43:36Z</time>
      </trkpt>
      <trkpt lat="48.63768" lon="1.98855">
        <ele>172.1</ele>
        <time>2023-06-23T09:43:46Z</time>
      </trkpt>
      <trkpt lat="48.63777" lon="1.98852">
        <ele>172.6</ele>
        <time>2023-06-23T09:43:58Z</time>
      </trkpt>
      <trkpt lat="48.63786" lon="1.98852">
        <ele>172.8</ele>
        <time>2023-06-23T09:44:12Z</time>
      </trkpt>
      <trkpt lat="48.63778" lon="1.98859">
        <ele>172.9</ele>
        <time>2023-06-23T09:44:42Z</time>
      </trkpt>
      <trkpt lat="48.63785" lon="1.98869">
        <ele>173</ele>
        <time>2023-06-23T09:45:01Z</time>
      </trkpt>
      <trkpt lat="48.6379" lon="1.9888">
        <ele>173</ele>
        <time>2023-06-23T09:45:12Z</time>
      </trkpt>
      <trkpt lat="48.63798" lon="1.98889">
        <ele>173</ele>
        <time>2023-06-23T09:45:24Z</time>
      </trkpt>
      <trkpt lat="48.63805" lon="1.98898">
        <ele>173</ele>
        <time>2023-06-23T09:45:32Z</time>
      </trkpt>
    </trkseg>
  </trk>
</gpx>